PWSweather.com
Personal Weather Stations
Station Observations
DL5ARK
SonnebergDE

SonnebergDE

Lat: 50.34904861, Lon: 11.18112087

Elevation: 1214

Station Type: Selfmade

http://www.sumbarg.de

High Low Average
Temperature 31.0°F-0.6°C 14.5°F-9.7°C 21.7°F-5.7°C
Dew Point 21.8°F-5.7°C 13.9°F-10.1°C 17.8°F-7.9°C
Winds 15.0 mph 24.1 kmh Calm Calm 3.0 mph SE4.8 kmh SE
Wind Gusts 15.1 mph24.3 kmh -- 3.0 mph4.8 kmh
Humidity 76% 50% 65%
Pressure 29.61 in1002.7 mb 29.34 in993.6 mb -
Precipitation 0.00 in0.0 mm - -
Hour Temp Dew Point Humidity Winds Wind Gusts Pressure Precip Precip Rate Daily Precip Total
12:02 AM 17.3°F-8.2°C 15.1°F-9.4°C 66% 2.8 mph E4.5 kmh E 2.8 mph4.5 kmh 29.61 in1002.7 mb 0.00 in0.0 mm 0.00 in0.0 mm 0.00 in0.0 mm
12:05 AM 17.2°F-8.2°C 14.8°F-9.6°C 66% 4.0 mph SSE6.4 kmh SSE 4.0 mph6.4 kmh 29.61 in1002.7 mb 0.00 in0.0 mm 0.00 in0.0 mm 0.00 in0.0 mm
12:08 AM 17.2°F-8.2°C 15.1°F-9.4°C 67% 3.2 mph SE5.1 kmh SE 3.2 mph5.1 kmh 29.61 in1002.7 mb 0.00 in0.0 mm 0.00 in0.0 mm 0.00 in0.0 mm
12:11 AM 17.0°F-8.3°C 14.7°F-9.6°C 67% 2.8 mph S4.5 kmh S 2.8 mph4.5 kmh 29.61 in1002.7 mb 0.00 in0.0 mm 0.00 in0.0 mm 0.00 in0.0 mm
12:14 AM 17.3°F-8.2°C 14.8°F-9.6°C 67% 6.8 mph SE10.9 kmh SE 6.8 mph10.9 kmh 29.61 in1002.7 mb 0.00 in0.0 mm 0.00 in0.0 mm 0.00 in0.0 mm
12:17 AM 17.4°F-8.1°C 14.5°F-9.7°C 67% 4.3 mph SSW6.9 kmh SSW 4.4 mph7.1 kmh 29.61 in1002.7 mb 0.00 in0.0 mm 0.00 in0.0 mm 0.00 in0.0 mm
12:20 AM 17.0°F-8.3°C 14.8°F-9.6°C 67% 1.6 mph SE2.6 kmh SE 1.6 mph2.6 kmh 29.61 in1002.7 mb 0.00 in0.0 mm 0.00 in0.0 mm 0.00 in0.0 mm
12:23 AM 17.0°F-8.3°C 14.8°F-9.6°C 67% 10.9 mph SE17.5 kmh SE 10.9 mph17.5 kmh 29.60 in1002.4 mb 0.00 in0.0 mm 0.00 in0.0 mm 0.00 in0.0 mm
12:26 AM 17.0°F-8.3°C 14.9°F-9.5°C 67% 6.9 mph NNW11.1 kmh NNW 6.9 mph11.1 kmh 29.60 in1002.4 mb 0.00 in0.0 mm 0.00 in0.0 mm 0.00 in0.0 mm
12:29 AM 17.0°F-8.3°C 15.0°F-9.4°C 67% 2.0 mph SE3.2 kmh SE 2.0 mph3.2 kmh 29.59 in1002.0 mb 0.00 in0.0 mm 0.00 in0.0 mm 0.00 in0.0 mm
12:32 AM 16.7°F-8.5°C 14.8°F-9.6°C 67% 1.6 mph SE2.6 kmh SE 1.6 mph2.6 kmh 29.59 in1002.0 mb 0.00 in0.0 mm 0.00 in0.0 mm 0.00 in0.0 mm
12:35 AM 17.0°F-8.3°C 14.7°F-9.6°C 67% 6.8 mph SE10.9 kmh SE 6.8 mph10.9 kmh 29.59 in1002.0 mb 0.00 in0.0 mm 0.00 in0.0 mm 0.00 in0.0 mm
12:38 AM 16.9°F-8.4°C 14.5°F-9.7°C 68% 1.6 mph ESE2.6 kmh ESE 1.6 mph2.6 kmh 29.59 in1002.0 mb 0.00 in0.0 mm 0.00 in0.0 mm 0.00 in0.0 mm
12:41 AM 16.7°F-8.5°C 15.1°F-9.4°C 68% Calm Calm -- 29.59 in1002.0 mb 0.00 in0.0 mm 0.00 in0.0 mm 0.00 in0.0 mm
12:44 AM 16.9°F-8.4°C 14.6°F-9.7°C 68% 1.2 mph NNW1.9 kmh NNW 1.2 mph1.9 kmh 29.59 in1002.0 mb 0.00 in0.0 mm 0.00 in0.0 mm 0.00 in0.0 mm
12:47 AM 17.0°F-8.3°C 14.6°F-9.7°C 68% 4.8 mph S7.7 kmh S 4.8 mph7.7 kmh 29.59 in1002.0 mb 0.00 in0.0 mm 0.00 in0.0 mm 0.00 in0.0 mm
12:50 AM 16.9°F-8.4°C 14.5°F-9.7°C 68% 6.3 mph SSE10.1 kmh SSE 6.4 mph10.3 kmh 29.59 in1002.0 mb 0.00 in0.0 mm 0.00 in0.0 mm 0.00 in0.0 mm
12:53 AM 16.8°F-8.4°C 14.9°F-9.5°C 68% Calm Calm -- 29.58 in1001.7 mb 0.00 in0.0 mm 0.00 in0.0 mm 0.00 in0.0 mm
12:56 AM 16.8°F-8.4°C 14.8°F-9.6°C 68% 2.8 mph NNW4.5 kmh NNW 2.8 mph4.5 kmh 29.58 in1001.7 mb 0.00 in0.0 mm 0.00 in0.0 mm 0.00 in0.0 mm
12:59 AM 16.5°F-8.6°C 15.2°F-9.3°C 68% 3.2 mph ESE5.1 kmh ESE 3.2 mph5.1 kmh 29.58 in1001.7 mb 0.00 in0.0 mm 0.00 in0.0 mm 0.00 in0.0 mm
01:02 AM 16.4°F-8.7°C 15.1°F-9.4°C 68% 0.4 mph SE0.6 kmh SE 0.4 mph0.6 kmh 29.58 in1001.7 mb 0.00 in0.0 mm 0.00 in0.0 mm 0.00 in0.0 mm
01:05 AM 16.6°F-8.6°C 15.0°F-9.4°C 68% 6.0 mph SE9.7 kmh SE 6.0 mph9.7 kmh 29.58 in1001.7 mb 0.00 in0.0 mm 0.00 in0.0 mm 0.00 in0.0 mm
01:08 AM 16.5°F-8.6°C 15.0°F-9.4°C 68% Calm Calm -- 29.58 in1001.7 mb 0.00 in0.0 mm 0.00 in0.0 mm 0.00 in0.0 mm
01:11 AM 16.6°F-8.6°C 15.0°F-9.4°C 68% Calm Calm -- 29.58 in1001.7 mb 0.00 in0.0 mm 0.00 in0.0 mm 0.00 in0.0 mm
01:14 AM 16.5°F-8.6°C 14.8°F-9.6°C 67% 0.4 mph SE0.6 kmh SE 0.4 mph0.6 kmh 29.58 in1001.7 mb 0.00 in0.0 mm 0.00 in0.0 mm 0.00 in0.0 mm
01:17 AM 16.3°F-8.7°C 15.2°F-9.3°C 67% 0.4 mph ESE0.6 kmh ESE 0.4 mph0.6 kmh 29.58 in1001.7 mb 0.00 in0.0 mm 0.00 in0.0 mm 0.00 in0.0 mm
01:20 AM 16.0°F-8.9°C 14.7°F-9.6°C 68% Calm Calm -- 29.58 in1001.7 mb 0.00 in0.0 mm 0.00 in0.0 mm 0.00 in0.0 mm
01:23 AM 16.1°F-8.8°C 15.2°F-9.3°C 68% Calm Calm -- 29.58 in1001.7 mb 0.00 in0.0 mm 0.00 in0.0 mm 0.00 in0.0 mm
01:26 AM 16.0°F-8.9°C 15.0°F-9.4°C 68% 1.2 mph ESE1.9 kmh ESE 1.2 mph1.9 kmh 29.58 in1001.7 mb 0.00 in0.0 mm 0.00 in0.0 mm 0.00 in0.0 mm
01:29 AM 16.0°F-8.9°C 15.3°F-9.3°C 68% 0.4 mph SSE0.6 kmh SSE 0.4 mph0.6 kmh 29.58 in1001.7 mb 0.00 in0.0 mm 0.00 in0.0 mm 0.00 in0.0 mm
01:32 AM 16.1°F-8.8°C 15.0°F-9.4°C 67% 0.8 mph ESE1.3 kmh ESE 0.8 mph1.3 kmh 29.58 in1001.7 mb 0.00 in0.0 mm 0.00 in0.0 mm 0.00 in0.0 mm
01:35 AM 16.5°F-8.6°C 15.1°F-9.4°C 68% Calm Calm -- 29.58 in1001.7 mb 0.00 in0.0 mm 0.00 in0.0 mm 0.00 in0.0 mm
01:38 AM 16.1°F-8.8°C 14.9°F-9.5°C 68% 7.7 mph ESE12.4 kmh ESE 7.7 mph12.4 kmh 29.58 in1001.7 mb 0.00 in0.0 mm 0.00 in0.0 mm 0.00 in0.0 mm
01:41 AM 16.0°F-8.9°C 15.1°F-9.4°C 68% 4.0 mph ESE6.4 kmh ESE 4.0 mph6.4 kmh 29.58 in1001.7 mb 0.00 in0.0 mm 0.00 in0.0 mm 0.00 in0.0 mm
01:44 AM 16.3°F-8.7°C 15.0°F-9.4°C 68% 0.8 mph ESE1.3 kmh ESE 0.8 mph1.3 kmh 29.58 in1001.7 mb 0.00 in0.0 mm 0.00 in0.0 mm 0.00 in0.0 mm
01:47 AM 16.5°F-8.6°C 14.6°F-9.7°C 68% 6.8 mph SE10.9 kmh SE 6.8 mph10.9 kmh 29.58 in1001.7 mb 0.00 in0.0 mm 0.00 in0.0 mm 0.00 in0.0 mm
01:50 AM 16.6°F-8.6°C 14.6°F-9.7°C 69% 2.3 mph SE3.7 kmh SE 2.3 mph3.7 kmh 29.58 in1001.7 mb 0.00 in0.0 mm 0.00 in0.0 mm 0.00 in0.0 mm
01:53 AM 16.1°F-8.8°C 15.4°F-9.2°C 69% 0.8 mph ESE1.3 kmh ESE 0.8 mph1.3 kmh 29.58 in1001.7 mb 0.00 in0.0 mm 0.00 in0.0 mm 0.00 in0.0 mm
01:56 AM 16.5°F-8.6°C 14.6°F-9.7°C 68% 0.4 mph SE0.6 kmh SE 0.4 mph0.6 kmh 29.58 in1001.7 mb 0.00 in0.0 mm 0.00 in0.0 mm 0.00 in0.0 mm
01:59 AM 16.4°F-8.7°C 14.8°F-9.6°C 68% 1.6 mph SE2.6 kmh SE 1.6 mph2.6 kmh 29.57 in1001.4 mb 0.00 in0.0 mm 0.00 in0.0 mm 0.00 in0.0 mm
02:02 AM 16.4°F-8.7°C 14.8°F-9.6°C 69% 5.2 mph SSE8.4 kmh SSE 5.3 mph8.5 kmh 29.57 in1001.4 mb 0.00 in0.0 mm 0.00 in0.0 mm 0.00 in0.0 mm
02:05 AM 16.6°F-8.6°C 14.6°F-9.7°C 69% Calm Calm -- 29.57 in1001.4 mb 0.00 in0.0 mm 0.00 in0.0 mm 0.00 in0.0 mm
02:08 AM 16.6°F-8.6°C 14.6°F-9.7°C 69% 4.8 mph SE7.7 kmh SE 4.8 mph7.7 kmh 29.57 in1001.4 mb 0.00 in0.0 mm 0.00 in0.0 mm 0.00 in0.0 mm
02:11 AM 16.3°F-8.7°C 15.1°F-9.4°C 69% 4.8 mph SE7.7 kmh SE 4.8 mph7.7 kmh 29.57 in1001.4 mb 0.00 in0.0 mm 0.00 in0.0 mm 0.00 in0.0 mm
02:14 AM 16.1°F-8.8°C 15.1°F-9.4°C 69% 6.7 mph E10.8 kmh E 6.8 mph10.9 kmh 29.56 in1001.0 mb 0.00 in0.0 mm 0.00 in0.0 mm 0.00 in0.0 mm
02:17 AM 16.3°F-8.7°C 15.0°F-9.4°C 69% Calm Calm -- 29.56 in1001.0 mb 0.00 in0.0 mm 0.00 in0.0 mm 0.00 in0.0 mm
02:20 AM 15.9°F-8.9°C 15.1°F-9.4°C 69% 2.0 mph E3.2 kmh E 2.0 mph3.2 kmh 29.57 in1001.4 mb 0.00 in0.0 mm 0.00 in0.0 mm 0.00 in0.0 mm
02:23 AM 15.9°F-8.9°C 14.9°F-9.5°C 69% 0.4 mph ESE0.6 kmh ESE 0.4 mph0.6 kmh 29.57 in1001.4 mb 0.00 in0.0 mm 0.00 in0.0 mm 0.00 in0.0 mm
02:26 AM 15.9°F-8.9°C 15.0°F-9.4°C 69% 3.9 mph ESE6.3 kmh ESE 4.0 mph6.4 kmh 29.57 in1001.4 mb 0.00 in0.0 mm 0.00 in0.0 mm 0.00 in0.0 mm
02:29 AM 15.8°F-9.0°C 15.0°F-9.4°C 69% Calm Calm -- 29.57 in1001.4 mb 0.00 in0.0 mm 0.00 in0.0 mm 0.00 in0.0 mm
02:32 AM 15.5°F-9.2°C 15.1°F-9.4°C 70% Calm Calm -- 29.57 in1001.4 mb 0.00 in0.0 mm 0.00 in0.0 mm 0.00 in0.0 mm
02:35 AM 15.6°F-9.1°C 15.0°F-9.4°C 70% 0.4 mph SE0.6 kmh SE 0.4 mph0.6 kmh 29.56 in1001.0 mb 0.00 in0.0 mm 0.00 in0.0 mm 0.00 in0.0 mm
02:38 AM 15.7°F-9.1°C 15.0°F-9.4°C 70% Calm Calm -- 29.56 in1001.0 mb 0.00 in0.0 mm 0.00 in0.0 mm 0.00 in0.0 mm
02:41 AM 15.6°F-9.1°C 15.2°F-9.3°C 70% 3.6 mph SE5.8 kmh SE 3.6 mph5.8 kmh 29.56 in1001.0 mb 0.00 in0.0 mm 0.00 in0.0 mm 0.00 in0.0 mm
02:44 AM 15.5°F-9.2°C 15.1°F-9.4°C 70% 0.4 mph SE0.6 kmh SE 0.4 mph0.6 kmh 29.56 in1001.0 mb 0.00 in0.0 mm 0.00 in0.0 mm 0.00 in0.0 mm
02:47 AM 15.5°F-9.2°C 14.9°F-9.5°C 70% 1.6 mph ESE2.6 kmh ESE 1.6 mph2.6 kmh 29.56 in1001.0 mb 0.00 in0.0 mm 0.00 in0.0 mm 0.00 in0.0 mm
02:50 AM 15.6°F-9.1°C 14.9°F-9.5°C 70% Calm Calm -- 29.55 in1000.7 mb 0.00 in0.0 mm 0.00 in0.0 mm 0.00 in0.0 mm
02:53 AM 15.5°F-9.2°C 14.9°F-9.5°C 70% 5.6 mph E9.0 kmh E 5.6 mph9.0 kmh 29.55 in1000.7 mb 0.00 in0.0 mm 0.00 in0.0 mm 0.00 in0.0 mm
02:56 AM 15.5°F-9.2°C 14.8°F-9.6°C 70% 5.9 mph E9.5 kmh E 5.9 mph9.5 kmh 29.55 in1000.7 mb 0.00 in0.0 mm 0.00 in0.0 mm 0.00 in0.0 mm
02:59 AM 15.5°F-9.2°C 15.1°F-9.4°C 70% Calm Calm -- 29.55 in1000.7 mb 0.00 in0.0 mm 0.00 in0.0 mm 0.00 in0.0 mm
03:02 AM 15.2°F-9.3°C 15.0°F-9.4°C 70% 6.1 mph ESE9.8 kmh ESE 6.1 mph9.8 kmh 29.55 in1000.7 mb 0.00 in0.0 mm 0.00 in0.0 mm 0.00 in0.0 mm
03:05 AM 15.6°F-9.1°C 14.7°F-9.6°C 70% 2.8 mph E4.5 kmh E 2.8 mph4.5 kmh 29.55 in1000.7 mb 0.00 in0.0 mm 0.00 in0.0 mm 0.00 in0.0 mm
03:08 AM 15.2°F-9.3°C 14.7°F-9.6°C 70% 4.0 mph E6.4 kmh E 4.0 mph6.4 kmh 29.55 in1000.7 mb 0.00 in0.0 mm 0.00 in0.0 mm 0.00 in0.0 mm
03:11 AM 14.8°F-9.6°C 15.0°F-9.4°C 70% Calm Calm -- 29.55 in1000.7 mb 0.00 in0.0 mm 0.00 in0.0 mm 0.00 in0.0 mm
03:14 AM 15.2°F-9.3°C 15.0°F-9.4°C 70% 4.8 mph ESE7.7 kmh ESE 4.8 mph7.7 kmh 29.55 in1000.7 mb 0.00 in0.0 mm 0.00 in0.0 mm 0.00 in0.0 mm
03:17 AM 15.0°F-9.4°C 14.9°F-9.5°C 70% 3.1 mph E5.0 kmh E 3.2 mph5.1 kmh 29.55 in1000.7 mb 0.00 in0.0 mm 0.00 in0.0 mm 0.00 in0.0 mm
03:20 AM 15.2°F-9.3°C 14.9°F-9.5°C 71% 3.2 mph SE5.1 kmh SE 3.2 mph5.1 kmh 29.54 in1000.3 mb 0.00 in0.0 mm 0.00 in0.0 mm 0.00 in0.0 mm
03:23 AM 15.1°F-9.4°C 14.7°F-9.6°C 71% 1.2 mph NE1.9 kmh NE 1.2 mph1.9 kmh 29.54 in1000.3 mb 0.00 in0.0 mm 0.00 in0.0 mm 0.00 in0.0 mm
03:26 AM 15.2°F-9.3°C 14.3°F-9.8°C 71% 0.8 mph ENE1.3 kmh ENE 0.8 mph1.3 kmh 29.54 in1000.3 mb 0.00 in0.0 mm 0.00 in0.0 mm 0.00 in0.0 mm
03:29 AM 15.1°F-9.4°C 14.5°F-9.7°C 70% 0.4 mph ESE0.6 kmh ESE 0.4 mph0.6 kmh 29.53 in1000.0 mb 0.00 in0.0 mm 0.00 in0.0 mm 0.00 in0.0 mm
03:32 AM 15.1°F-9.4°C 14.2°F-9.9°C 71% Calm Calm -- 29.53 in1000.0 mb 0.00 in0.0 mm 0.00 in0.0 mm 0.00 in0.0 mm
03:35 AM 15.1°F-9.4°C 14.5°F-9.7°C 71% 2.4 mph SE3.9 kmh SE 2.4 mph3.9 kmh 29.53 in1000.0 mb 0.00 in0.0 mm 0.00 in0.0 mm 0.00 in0.0 mm
03:38 AM 14.9°F-9.5°C 14.8°F-9.6°C 71% 2.0 mph SE3.2 kmh SE 2.0 mph3.2 kmh 29.53 in1000.0 mb 0.00 in0.0 mm 0.00 in0.0 mm 0.00 in0.0 mm
03:41 AM 15.1°F-9.4°C 14.3°F-9.8°C 71% 1.6 mph SE2.6 kmh SE 1.6 mph2.6 kmh 29.53 in1000.0 mb 0.00 in0.0 mm 0.00 in0.0 mm 0.00 in0.0 mm
03:44 AM 14.6°F-9.7°C 14.4°F-9.8°C 71% Calm Calm -- 29.53 in1000.0 mb 0.00 in0.0 mm 0.00 in0.0 mm 0.00 in0.0 mm
03:47 AM 14.8°F-9.6°C 14.7°F-9.6°C 71% 1.2 mph SE1.9 kmh SE 1.2 mph1.9 kmh 29.53 in1000.0 mb 0.00 in0.0 mm 0.00 in0.0 mm 0.00 in0.0 mm
03:50 AM 15.0°F-9.4°C 14.4°F-9.8°C 71% Calm Calm -- 29.53 in1000.0 mb 0.00 in0.0 mm 0.00 in0.0 mm 0.00 in0.0 mm
03:53 AM 14.9°F-9.5°C 14.4°F-9.8°C 71% Calm Calm -- 29.53 in1000.0 mb 0.00 in0.0 mm 0.00 in0.0 mm 0.00 in0.0 mm
03:56 AM 14.9°F-9.5°C 14.3°F-9.8°C 71% Calm Calm -- 29.53 in1000.0 mb 0.00 in0.0 mm 0.00 in0.0 mm 0.00 in0.0 mm
03:59 AM 15.0°F-9.4°C 14.5°F-9.7°C 71% 0.4 mph E0.6 kmh E 0.4 mph0.6 kmh 29.52 in999.7 mb 0.00 in0.0 mm 0.00 in0.0 mm 0.00 in0.0 mm
04:02 AM 14.9°F-9.5°C 14.5°F-9.7°C 71% 2.0 mph S3.2 kmh S 2.0 mph3.2 kmh 29.53 in1000.0 mb 0.00 in0.0 mm 0.00 in0.0 mm 0.00 in0.0 mm
04:05 AM 15.0°F-9.4°C 14.2°F-9.9°C 71% 2.4 mph ESE3.9 kmh ESE 2.4 mph3.9 kmh 29.53 in1000.0 mb 0.00 in0.0 mm 0.00 in0.0 mm 0.00 in0.0 mm
04:08 AM 15.1°F-9.4°C 14.4°F-9.8°C 72% Calm Calm -- 29.52 in999.7 mb 0.00 in0.0 mm 0.00 in0.0 mm 0.00 in0.0 mm
04:11 AM 15.1°F-9.4°C 14.2°F-9.9°C 72% 4.4 mph ESE7.1 kmh ESE 4.4 mph7.1 kmh 29.53 in1000.0 mb 0.00 in0.0 mm 0.00 in0.0 mm 0.00 in0.0 mm
04:14 AM 15.0°F-9.4°C 14.4°F-9.8°C 72% 2.8 mph E4.5 kmh E 2.8 mph4.5 kmh 29.53 in1000.0 mb 0.00 in0.0 mm 0.00 in0.0 mm 0.00 in0.0 mm
04:17 AM 14.8°F-9.6°C 14.5°F-9.7°C 72% Calm Calm -- 29.53 in1000.0 mb 0.00 in0.0 mm 0.00 in0.0 mm 0.00 in0.0 mm
04:20 AM 14.8°F-9.6°C 14.5°F-9.7°C 72% Calm Calm -- 29.52 in999.7 mb 0.00 in0.0 mm 0.00 in0.0 mm 0.00 in0.0 mm
04:23 AM 14.9°F-9.5°C 14.4°F-9.8°C 72% 2.8 mph ESE4.5 kmh ESE 2.8 mph4.5 kmh 29.52 in999.7 mb 0.00 in0.0 mm 0.00 in0.0 mm 0.00 in0.0 mm
04:26 AM 14.8°F-9.6°C 14.5°F-9.7°C 72% 4.0 mph ESE6.4 kmh ESE 4.0 mph6.4 kmh 29.53 in1000.0 mb 0.00 in0.0 mm 0.00 in0.0 mm 0.00 in0.0 mm
04:29 AM 14.8°F-9.6°C 14.5°F-9.7°C 71% Calm Calm -- 29.53 in1000.0 mb 0.00 in0.0 mm 0.00 in0.0 mm 0.00 in0.0 mm
04:32 AM 14.8°F-9.6°C 14.6°F-9.7°C 72% 2.0 mph SE3.2 kmh SE 2.0 mph3.2 kmh 29.53 in1000.0 mb 0.00 in0.0 mm 0.00 in0.0 mm 0.00 in0.0 mm
04:35 AM 14.9°F-9.5°C 14.5°F-9.7°C 72% 6.0 mph E9.7 kmh E 6.0 mph9.7 kmh 29.52 in999.7 mb 0.00 in0.0 mm 0.00 in0.0 mm 0.00 in0.0 mm
04:38 AM 14.9°F-9.5°C 14.4°F-9.8°C 72% Calm Calm -- 29.52 in999.7 mb 0.00 in0.0 mm 0.00 in0.0 mm 0.00 in0.0 mm
04:41 AM 14.9°F-9.5°C 14.5°F-9.7°C 72% 1.6 mph ESE2.6 kmh ESE 1.6 mph2.6 kmh 29.52 in999.7 mb 0.00 in0.0 mm 0.00 in0.0 mm 0.00 in0.0 mm
04:44 AM 15.0°F-9.4°C 14.6°F-9.7°C 72% Calm Calm -- 29.52 in999.7 mb 0.00 in0.0 mm 0.00 in0.0 mm 0.00 in0.0 mm
04:47 AM 15.0°F-9.4°C 14.6°F-9.7°C 72% 2.4 mph SE3.9 kmh SE 2.4 mph3.9 kmh 29.51 in999.3 mb 0.00 in0.0 mm 0.00 in0.0 mm 0.00 in0.0 mm
04:50 AM 15.0°F-9.4°C 14.5°F-9.7°C 72% 3.1 mph ESE5.0 kmh ESE 3.2 mph5.1 kmh 29.51 in999.3 mb 0.00 in0.0 mm 0.00 in0.0 mm 0.00 in0.0 mm
04:53 AM 14.8°F-9.6°C 14.8°F-9.6°C 73% 0.4 mph ESE0.6 kmh ESE 0.4 mph0.6 kmh 29.51 in999.3 mb 0.00 in0.0 mm 0.00 in0.0 mm 0.00 in0.0 mm
04:56 AM 14.6°F-9.7°C 14.8°F-9.6°C 72% 0.4 mph E0.6 kmh E 0.4 mph0.6 kmh 29.51 in999.3 mb 0.00 in0.0 mm 0.00 in0.0 mm 0.00 in0.0 mm
04:59 AM 14.8°F-9.6°C 14.5°F-9.7°C 72% 4.8 mph E7.7 kmh E 4.8 mph7.7 kmh 29.51 in999.3 mb 0.00 in0.0 mm 0.00 in0.0 mm 0.00 in0.0 mm
05:02 AM 14.7°F-9.6°C 14.6°F-9.7°C 72% 2.8 mph SE4.5 kmh SE 2.8 mph4.5 kmh 29.51 in999.3 mb 0.00 in0.0 mm 0.00 in0.0 mm 0.00 in0.0 mm
05:05 AM 14.7°F-9.6°C 14.6°F-9.7°C 72% Calm Calm -- 29.51 in999.3 mb 0.00 in0.0 mm 0.00 in0.0 mm 0.00 in0.0 mm
05:08 AM 14.7°F-9.6°C 14.6°F-9.7°C 73% 2.0 mph ESE3.2 kmh ESE 2.0 mph3.2 kmh 29.51 in999.3 mb 0.00 in0.0 mm 0.00 in0.0 mm 0.00 in0.0 mm
05:11 AM 14.6°F-9.7°C 14.9°F-9.5°C 73% 3.2 mph ESE5.1 kmh ESE 3.3 mph5.3 kmh 29.51 in999.3 mb 0.00 in0.0 mm 0.00 in0.0 mm 0.00 in0.0 mm
05:14 AM 14.6°F-9.7°C 14.7°F-9.6°C 73% 2.8 mph SE4.5 kmh SE 2.8 mph4.5 kmh 29.51 in999.3 mb 0.00 in0.0 mm 0.00 in0.0 mm 0.00 in0.0 mm
05:17 AM 14.5°F-9.7°C 14.6°F-9.7°C 73% Calm Calm -- 29.51 in999.3 mb 0.00 in0.0 mm 0.00 in0.0 mm 0.00 in0.0 mm
05:20 AM 14.5°F-9.7°C 14.8°F-9.6°C 73% Calm Calm -- 29.51 in999.3 mb 0.00 in0.0 mm 0.00 in0.0 mm 0.00 in0.0 mm
05:23 AM 14.7°F-9.6°C 14.2°F-9.9°C 73% 3.2 mph NNW5.1 kmh NNW 3.2 mph5.1 kmh 29.51 in999.3 mb 0.00 in0.0 mm 0.00 in0.0 mm 0.00 in0.0 mm
05:26 AM 14.6°F-9.7°C 14.5°F-9.7°C 73% Calm Calm -- 29.50 in999.0 mb 0.00 in0.0 mm 0.00 in0.0 mm 0.00 in0.0 mm
05:29 AM 14.6°F-9.7°C 14.7°F-9.6°C 73% Calm Calm -- 29.50 in999.0 mb 0.00 in0.0 mm 0.00 in0.0 mm 0.00 in0.0 mm
05:32 AM 14.9°F-9.5°C 14.3°F-9.8°C 73% Calm Calm -- 29.50 in999.0 mb 0.00 in0.0 mm 0.00 in0.0 mm 0.00 in0.0 mm
05:35 AM 14.7°F-9.6°C 14.7°F-9.6°C 73% 0.8 mph SE1.3 kmh SE 0.8 mph1.3 kmh 29.50 in999.0 mb 0.00 in0.0 mm 0.00 in0.0 mm 0.00 in0.0 mm
05:38 AM 14.8°F-9.6°C 14.3°F-9.8°C 73% Calm Calm -- 29.50 in999.0 mb 0.00 in0.0 mm 0.00 in0.0 mm 0.00 in0.0 mm
05:41 AM 14.9°F-9.5°C 14.4°F-9.8°C 74% 1.2 mph ESE1.9 kmh ESE 1.2 mph1.9 kmh 29.50 in999.0 mb 0.00 in0.0 mm 0.00 in0.0 mm 0.00 in0.0 mm
05:44 AM 14.7°F-9.6°C 14.6°F-9.7°C 73% 1.2 mph ESE1.9 kmh ESE 1.2 mph1.9 kmh 29.50 in999.0 mb 0.00 in0.0 mm 0.00 in0.0 mm 0.00 in0.0 mm
05:47 AM 14.9°F-9.5°C 14.3°F-9.8°C 73% 2.7 mph E4.3 kmh E 2.8 mph4.5 kmh 29.50 in999.0 mb 0.00 in0.0 mm 0.00 in0.0 mm 0.00 in0.0 mm
05:50 AM 14.6°F-9.7°C 14.8°F-9.6°C 74% 4.4 mph E7.1 kmh E 4.5 mph7.2 kmh 29.50 in999.0 mb 0.00 in0.0 mm 0.00 in0.0 mm 0.00 in0.0 mm
05:53 AM 14.8°F-9.6°C 14.3°F-9.8°C 73% 4.7 mph SE7.6 kmh SE 4.7 mph7.6 kmh 29.50 in999.0 mb 0.00 in0.0 mm 0.00 in0.0 mm 0.00 in0.0 mm
05:56 AM 14.8°F-9.6°C 14.4°F-9.8°C 74% 2.8 mph ESE4.5 kmh ESE 2.9 mph4.7 kmh 29.50 in999.0 mb 0.00 in0.0 mm 0.00 in0.0 mm 0.00 in0.0 mm
05:59 AM 14.9°F-9.5°C 14.2°F-9.9°C 74% 1.6 mph ESE2.6 kmh ESE 1.6 mph2.6 kmh 29.50 in999.0 mb 0.00 in0.0 mm 0.00 in0.0 mm 0.00 in0.0 mm
06:02 AM 14.8°F-9.6°C 14.4°F-9.8°C 74% 1.6 mph ESE2.6 kmh ESE 1.6 mph2.6 kmh 29.50 in999.0 mb 0.00 in0.0 mm 0.00 in0.0 mm 0.00 in0.0 mm
06:05 AM 14.8°F-9.6°C 14.2°F-9.9°C 74% 2.4 mph ESE3.9 kmh ESE 2.4 mph3.9 kmh 29.49 in998.6 mb 0.00 in0.0 mm 0.00 in0.0 mm 0.00 in0.0 mm
06:08 AM 14.8°F-9.6°C 14.4°F-9.8°C 74% 2.8 mph E4.5 kmh E 2.8 mph4.5 kmh 29.50 in999.0 mb 0.00 in0.0 mm 0.00 in0.0 mm 0.00 in0.0 mm
06:11 AM 14.8°F-9.6°C 14.4°F-9.8°C 74% Calm Calm -- 29.49 in998.6 mb 0.00 in0.0 mm 0.00 in0.0 mm 0.00 in0.0 mm
06:14 AM 14.7°F-9.6°C 14.5°F-9.7°C 74% Calm Calm -- 29.50 in999.0 mb 0.00 in0.0 mm 0.00 in0.0 mm 0.00 in0.0 mm
06:17 AM 14.7°F-9.6°C 14.6°F-9.7°C 74% 2.7 mph E4.3 kmh E 2.7 mph4.3 kmh 29.49 in998.6 mb 0.00 in0.0 mm 0.00 in0.0 mm 0.00 in0.0 mm
06:20 AM 14.6°F-9.7°C 14.6°F-9.7°C 74% 6.5 mph ESE10.5 kmh ESE 6.5 mph10.5 kmh 29.49 in998.6 mb 0.00 in0.0 mm 0.00 in0.0 mm 0.00 in0.0 mm
06:23 AM 14.5°F-9.7°C 14.6°F-9.7°C 74% 1.2 mph E1.9 kmh E 1.2 mph1.9 kmh 29.48 in998.3 mb 0.00 in0.0 mm 0.00 in0.0 mm 0.00 in0.0 mm
06:26 AM 14.7°F-9.6°C 14.3°F-9.8°C 75% 3.6 mph NE5.8 kmh NE 3.6 mph5.8 kmh 29.48 in998.3 mb 0.00 in0.0 mm 0.00 in0.0 mm 0.00 in0.0 mm
06:29 AM 14.6°F-9.7°C 14.4°F-9.8°C 75% 9.2 mph E14.8 kmh E 9.3 mph15.0 kmh 29.48 in998.3 mb 0.00 in0.0 mm 0.00 in0.0 mm 0.00 in0.0 mm
06:32 AM 14.7°F-9.6°C 14.5°F-9.7°C 75% 4.0 mph E6.4 kmh E 4.0 mph6.4 kmh 29.48 in998.3 mb 0.00 in0.0 mm 0.00 in0.0 mm 0.00 in0.0 mm
06:35 AM 14.9°F-9.5°C 14.1°F-9.9°C 75% 9.2 mph ESE14.8 kmh ESE 9.2 mph14.8 kmh 29.48 in998.3 mb 0.00 in0.0 mm 0.00 in0.0 mm 0.00 in0.0 mm
06:38 AM 14.9°F-9.5°C 14.3°F-9.8°C 75% 0.8 mph SSE1.3 kmh SSE 0.8 mph1.3 kmh 29.48 in998.3 mb 0.00 in0.0 mm 0.00 in0.0 mm 0.00 in0.0 mm
06:41 AM 15.0°F-9.4°C 14.4°F-9.8°C 75% 1.6 mph SE2.6 kmh SE 1.6 mph2.6 kmh 29.48 in998.3 mb 0.00 in0.0 mm 0.00 in0.0 mm 0.00 in0.0 mm
06:44 AM 15.2°F-9.3°C 14.4°F-9.8°C 76% 3.2 mph SE5.1 kmh SE 3.3 mph5.3 kmh 29.48 in998.3 mb 0.00 in0.0 mm 0.00 in0.0 mm 0.00 in0.0 mm
06:47 AM 15.2°F-9.3°C 14.5°F-9.7°C 75% 8.5 mph ESE13.7 kmh ESE 8.5 mph13.7 kmh 29.47 in998.0 mb 0.00 in0.0 mm 0.00 in0.0 mm 0.00 in0.0 mm
06:50 AM 15.1°F-9.4°C 14.6°F-9.7°C 75% 8.8 mph E14.2 kmh E 8.9 mph14.3 kmh 29.48 in998.3 mb 0.00 in0.0 mm 0.00 in0.0 mm 0.00 in0.0 mm
06:53 AM 15.0°F-9.4°C 14.8°F-9.6°C 75% 2.8 mph E4.5 kmh E 2.8 mph4.5 kmh 29.47 in998.0 mb 0.00 in0.0 mm 0.00 in0.0 mm 0.00 in0.0 mm
06:56 AM 15.1°F-9.4°C 14.0°F-10.0°C 75% 15.0 mph ESE24.1 kmh ESE 15.1 mph24.3 kmh 29.47 in998.0 mb 0.00 in0.0 mm 0.00 in0.0 mm 0.00 in0.0 mm
06:59 AM 14.9°F-9.5°C 14.6°F-9.7°C 75% Calm Calm -- 29.47 in998.0 mb 0.00 in0.0 mm 0.00 in0.0 mm 0.00 in0.0 mm
07:02 AM 14.9°F-9.5°C 14.1°F-9.9°C 74% 1.6 mph E2.6 kmh E 1.6 mph2.6 kmh 29.47 in998.0 mb 0.00 in0.0 mm 0.00 in0.0 mm 0.00 in0.0 mm
07:05 AM 14.8°F-9.6°C 14.5°F-9.7°C 75% 0.4 mph E0.6 kmh E 0.4 mph0.6 kmh 29.47 in998.0 mb 0.00 in0.0 mm 0.00 in0.0 mm 0.00 in0.0 mm
07:08 AM 14.8°F-9.6°C 14.0°F-10.0°C 75% 9.7 mph SE15.6 kmh SE 9.7 mph15.6 kmh 29.47 in998.0 mb 0.00 in0.0 mm 0.00 in0.0 mm 0.00 in0.0 mm
07:11 AM 14.9°F-9.5°C 14.7°F-9.6°C 75% 5.6 mph E9.0 kmh E 5.7 mph9.2 kmh 29.47 in998.0 mb 0.00 in0.0 mm 0.00 in0.0 mm 0.00 in0.0 mm
07:14 AM 14.8°F-9.6°C 14.6°F-9.7°C 74% 0.8 mph ESE1.3 kmh ESE 0.8 mph1.3 kmh 29.47 in998.0 mb 0.00 in0.0 mm 0.00 in0.0 mm 0.00 in0.0 mm
07:17 AM 14.9°F-9.5°C 14.2°F-9.9°C 74% 2.8 mph ESE4.5 kmh ESE 2.8 mph4.5 kmh 29.47 in998.0 mb 0.00 in0.0 mm 0.00 in0.0 mm 0.00 in0.0 mm
07:20 AM 15.0°F-9.4°C 14.2°F-9.9°C 75% 3.9 mph ESE6.3 kmh ESE 4.0 mph6.4 kmh 29.47 in998.0 mb 0.00 in0.0 mm 0.00 in0.0 mm 0.00 in0.0 mm
07:23 AM 15.2°F-9.3°C 14.4°F-9.8°C 75% 8.7 mph SE14.0 kmh SE 8.8 mph14.2 kmh 29.46 in997.6 mb 0.00 in0.0 mm 0.00 in0.0 mm 0.00 in0.0 mm
07:26 AM 15.2°F-9.3°C 14.2°F-9.9°C 74% 0.4 mph SE0.6 kmh SE 0.4 mph0.6 kmh 29.46 in997.6 mb 0.00 in0.0 mm 0.00 in0.0 mm 0.00 in0.0 mm
07:29 AM 15.4°F-9.2°C 14.5°F-9.7°C 74% 12.9 mph ESE20.8 kmh ESE 13.0 mph20.9 kmh 29.46 in997.6 mb 0.00 in0.0 mm 0.00 in0.0 mm 0.00 in0.0 mm
07:32 AM 15.5°F-9.2°C 15.0°F-9.4°C 74% 8.0 mph ESE12.9 kmh ESE 8.1 mph13.0 kmh 29.46 in997.6 mb 0.00 in0.0 mm 0.00 in0.0 mm 0.00 in0.0 mm
07:35 AM 15.6°F-9.1°C 14.6°F-9.7°C 74% 4.8 mph ESE7.7 kmh ESE 4.9 mph7.9 kmh 29.47 in998.0 mb 0.00 in0.0 mm 0.00 in0.0 mm 0.00 in0.0 mm
07:38 AM 15.6°F-9.1°C 14.5°F-9.7°C 74% 6.0 mph E9.7 kmh E 6.1 mph9.8 kmh 29.46 in997.6 mb 0.00 in0.0 mm 0.00 in0.0 mm 0.00 in0.0 mm
07:41 AM 15.5°F-9.2°C 14.7°F-9.6°C 74% 2.8 mph SE4.5 kmh SE 2.8 mph4.5 kmh 29.45 in997.3 mb 0.00 in0.0 mm 0.00 in0.0 mm 0.00 in0.0 mm
07:44 AM 15.5°F-9.2°C 14.5°F-9.7°C 74% 3.6 mph ESE5.8 kmh ESE 3.7 mph6.0 kmh 29.45 in997.3 mb 0.00 in0.0 mm 0.00 in0.0 mm 0.00 in0.0 mm
07:47 AM 15.6°F-9.1°C 14.2°F-9.9°C 75% 8.1 mph ESE13.0 kmh ESE 8.1 mph13.0 kmh 29.45 in997.3 mb 0.00 in0.0 mm 0.00 in0.0 mm 0.00 in0.0 mm
07:50 AM 15.8°F-9.0°C 14.8°F-9.6°C 75% 4.9 mph SE7.9 kmh SE 4.9 mph7.9 kmh 29.45 in997.3 mb 0.00 in0.0 mm 0.00 in0.0 mm 0.00 in0.0 mm
07:53 AM 15.8°F-9.0°C 14.8°F-9.6°C 74% 0.4 mph SE0.6 kmh SE 0.4 mph0.6 kmh 29.45 in997.3 mb 0.00 in0.0 mm 0.00 in0.0 mm 0.00 in0.0 mm
07:56 AM 15.8°F-9.0°C 14.5°F-9.7°C 74% Calm Calm -- 29.45 in997.3 mb 0.00 in0.0 mm 0.00 in0.0 mm 0.00 in0.0 mm
07:59 AM 15.9°F-8.9°C 14.9°F-9.5°C 74% 4.0 mph E6.4 kmh E 4.0 mph6.4 kmh 29.45 in997.3 mb 0.00 in0.0 mm 0.00 in0.0 mm 0.00 in0.0 mm
08:02 AM 15.9°F-8.9°C 14.8°F-9.6°C 74% Calm Calm -- 29.45 in997.3 mb 0.00 in0.0 mm 0.00 in0.0 mm 0.00 in0.0 mm
08:05 AM 15.9°F-8.9°C 14.7°F-9.6°C 74% 13.2 mph ESE21.2 kmh ESE 13.4 mph21.6 kmh 29.45 in997.3 mb 0.00 in0.0 mm 0.00 in0.0 mm 0.00 in0.0 mm
08:08 AM 16.0°F-8.9°C 14.6°F-9.7°C 74% 5.2 mph ESE8.4 kmh ESE 5.3 mph8.5 kmh 29.44 in997.0 mb 0.00 in0.0 mm 0.00 in0.0 mm 0.00 in0.0 mm
08:11 AM 16.1°F-8.8°C 14.5°F-9.7°C 74% 4.9 mph ESE7.9 kmh ESE 4.9 mph7.9 kmh 29.44 in997.0 mb 0.00 in0.0 mm 0.00 in0.0 mm 0.00 in0.0 mm
08:14 AM 16.3°F-8.7°C 14.7°F-9.6°C 74% 6.1 mph SE9.8 kmh SE 6.1 mph9.8 kmh 29.44 in997.0 mb 0.00 in0.0 mm 0.00 in0.0 mm 0.00 in0.0 mm
08:17 AM 16.4°F-8.7°C 14.9°F-9.5°C 74% 6.8 mph E10.9 kmh E 6.9 mph11.1 kmh 29.44 in997.0 mb 0.00 in0.0 mm 0.00 in0.0 mm 0.00 in0.0 mm
08:20 AM 16.5°F-8.6°C 14.9°F-9.5°C 74% 4.3 mph ESE6.9 kmh ESE 4.3 mph6.9 kmh 29.44 in997.0 mb 0.00 in0.0 mm 0.00 in0.0 mm 0.00 in0.0 mm
08:23 AM 16.6°F-8.6°C 15.0°F-9.4°C 73% 7.5 mph SE12.1 kmh SE 7.5 mph12.1 kmh 29.44 in997.0 mb 0.00 in0.0 mm 0.00 in0.0 mm 0.00 in0.0 mm
08:26 AM 16.7°F-8.5°C 14.9°F-9.5°C 73% 0.4 mph NNW0.6 kmh NNW 0.4 mph0.6 kmh 29.44 in997.0 mb 0.00 in0.0 mm 0.00 in0.0 mm 0.00 in0.0 mm
08:29 AM 16.9°F-8.4°C 14.7°F-9.6°C 73% 5.2 mph ESE8.4 kmh ESE 5.3 mph8.5 kmh 29.44 in997.0 mb 0.00 in0.0 mm 0.00 in0.0 mm 0.00 in0.0 mm
08:32 AM 16.9°F-8.4°C 14.8°F-9.6°C 73% 4.8 mph S7.7 kmh S 4.8 mph7.7 kmh 29.43 in996.6 mb 0.00 in0.0 mm 0.00 in0.0 mm 0.00 in0.0 mm
08:35 AM 16.9°F-8.4°C 15.0°F-9.4°C 72% Calm Calm -- 29.44 in997.0 mb 0.00 in0.0 mm 0.00 in0.0 mm 0.00 in0.0 mm
08:38 AM 17.2°F-8.2°C 15.2°F-9.3°C 72% Calm Calm -- 29.44 in997.0 mb 0.00 in0.0 mm 0.00 in0.0 mm 0.00 in0.0 mm
08:41 AM 17.2°F-8.2°C 15.1°F-9.4°C 72% 4.4 mph SE7.1 kmh SE 4.4 mph7.1 kmh 29.44 in997.0 mb 0.00 in0.0 mm 0.00 in0.0 mm 0.00 in0.0 mm
08:44 AM 17.2°F-8.2°C 14.9°F-9.5°C 72% 6.8 mph SE10.9 kmh SE 6.8 mph10.9 kmh 29.45 in997.3 mb 0.00 in0.0 mm 0.00 in0.0 mm 0.00 in0.0 mm
08:47 AM 17.5°F-8.1°C 15.6°F-9.1°C 72% Calm Calm -- 29.44 in997.0 mb 0.00 in0.0 mm 0.00 in0.0 mm 0.00 in0.0 mm
08:50 AM 17.6°F-8.0°C 15.4°F-9.2°C 71% 3.2 mph E5.1 kmh E 3.2 mph5.1 kmh 29.45 in997.3 mb 0.00 in0.0 mm 0.00 in0.0 mm 0.00 in0.0 mm
08:53 AM 17.5°F-8.1°C 15.1°F-9.4°C 72% 2.8 mph E4.5 kmh E 2.8 mph4.5 kmh 29.45 in997.3 mb 0.00 in0.0 mm 0.00 in0.0 mm 0.00 in0.0 mm
08:56 AM 17.8°F-7.9°C 15.4°F-9.2°C 71% 0.4 mph SSE0.6 kmh SSE 0.4 mph0.6 kmh 29.45 in997.3 mb 0.00 in0.0 mm 0.00 in0.0 mm 0.00 in0.0 mm
08:59 AM 18.3°F-7.6°C 15.5°F-9.2°C 71% Calm Calm -- 29.45 in997.3 mb 0.00 in0.0 mm 0.00 in0.0 mm 0.00 in0.0 mm
09:02 AM 18.3°F-7.6°C 15.7°F-9.1°C 71% Calm Calm -- 29.45 in997.3 mb 0.00 in0.0 mm 0.00 in0.0 mm 0.00 in0.0 mm
09:05 AM 18.3°F-7.6°C 15.6°F-9.1°C 71% 4.0 mph ESE6.4 kmh ESE 4.0 mph6.4 kmh 29.45 in997.3 mb 0.00 in0.0 mm 0.00 in0.0 mm 0.00 in0.0 mm
09:08 AM 18.4°F-7.6°C 15.5°F-9.2°C 71% Calm Calm -- 29.45 in997.3 mb 0.00 in0.0 mm 0.00 in0.0 mm 0.00 in0.0 mm
09:11 AM 18.7°F-7.4°C 15.9°F-8.9°C 71% 0.4 mph SE0.6 kmh SE 0.4 mph0.6 kmh 29.45 in997.3 mb 0.00 in0.0 mm 0.00 in0.0 mm 0.00 in0.0 mm
09:14 AM 18.3°F-7.6°C 15.8°F-9.0°C 70% 0.8 mph E1.3 kmh E 0.8 mph1.3 kmh 29.45 in997.3 mb 0.00 in0.0 mm 0.00 in0.0 mm 0.00 in0.0 mm
09:17 AM 17.9°F-7.8°C 15.5°F-9.2°C 70% 1.2 mph SE1.9 kmh SE 1.2 mph1.9 kmh 29.45 in997.3 mb 0.00 in0.0 mm 0.00 in0.0 mm 0.00 in0.0 mm
09:20 AM 18.1°F-7.7°C 15.7°F-9.1°C 70% Calm Calm -- 29.45 in997.3 mb 0.00 in0.0 mm 0.00 in0.0 mm 0.00 in0.0 mm
09:23 AM 18.2°F-7.7°C 15.8°F-9.0°C 71% 6.0 mph E9.7 kmh E 6.0 mph9.7 kmh 29.44 in997.0 mb 0.00 in0.0 mm 0.00 in0.0 mm 0.00 in0.0 mm
09:26 AM 18.4°F-7.6°C 15.7°F-9.1°C 71% 0.8 mph ESE1.3 kmh ESE 0.8 mph1.3 kmh 29.44 in997.0 mb 0.00 in0.0 mm 0.00 in0.0 mm 0.00 in0.0 mm
09:29 AM 18.7°F-7.4°C 15.6°F-9.1°C 70% Calm Calm -- 29.44 in997.0 mb 0.00 in0.0 mm 0.00 in0.0 mm 0.00 in0.0 mm
09:32 AM 19.5°F-6.9°C 15.9°F-8.9°C 71% Calm Calm -- 29.44 in997.0 mb 0.00 in0.0 mm 0.00 in0.0 mm 0.00 in0.0 mm
09:35 AM 20.2°F-6.6°C 15.9°F-8.9°C 70% 0.8 mph E1.3 kmh E 0.8 mph1.3 kmh 29.44 in997.0 mb 0.00 in0.0 mm 0.00 in0.0 mm 0.00 in0.0 mm
09:38 AM 19.6°F-6.9°C 16.1°F-8.8°C 70% 5.3 mph E8.5 kmh E 5.3 mph8.5 kmh 29.43 in996.6 mb 0.00 in0.0 mm 0.00 in0.0 mm 0.00 in0.0 mm
09:41 AM 20.4°F-6.4°C 16.0°F-8.9°C 70% 3.2 mph SE5.1 kmh SE 3.2 mph5.1 kmh 29.44 in997.0 mb 0.00 in0.0 mm 0.00 in0.0 mm 0.00 in0.0 mm
09:44 AM 20.3°F-6.5°C 16.2°F-8.8°C 69% 2.8 mph S4.5 kmh S 2.9 mph4.7 kmh 29.43 in996.6 mb 0.00 in0.0 mm 0.00 in0.0 mm 0.00 in0.0 mm
09:47 AM 20.0°F-6.7°C 16.3°F-8.7°C 69% Calm Calm -- 29.43 in996.6 mb 0.00 in0.0 mm 0.00 in0.0 mm 0.00 in0.0 mm
09:50 AM 20.1°F-6.6°C 16.6°F-8.6°C 70% 2.8 mph ESE4.5 kmh ESE 2.8 mph4.5 kmh 29.43 in996.6 mb 0.00 in0.0 mm 0.00 in0.0 mm 0.00 in0.0 mm
09:53 AM 19.9°F-6.7°C 16.0°F-8.9°C 69% 5.6 mph E9.0 kmh E 5.7 mph9.2 kmh 29.43 in996.6 mb 0.00 in0.0 mm 0.00 in0.0 mm 0.00 in0.0 mm
09:56 AM 19.7°F-6.8°C 16.4°F-8.7°C 70% 0.8 mph SE1.3 kmh SE 0.8 mph1.3 kmh 29.43 in996.6 mb 0.00 in0.0 mm 0.00 in0.0 mm 0.00 in0.0 mm
09:59 AM 20.1°F-6.6°C 16.3°F-8.7°C 69% 0.4 mph SE0.6 kmh SE 0.4 mph0.6 kmh 29.43 in996.6 mb 0.00 in0.0 mm 0.00 in0.0 mm 0.00 in0.0 mm
10:02 AM 20.3°F-6.5°C 16.9°F-8.4°C 69% 12.0 mph E19.3 kmh E 12.1 mph19.5 kmh 29.43 in996.6 mb 0.00 in0.0 mm 0.00 in0.0 mm 0.00 in0.0 mm
10:05 AM 20.4°F-6.4°C 16.7°F-8.5°C 69% 2.8 mph E4.5 kmh E 2.8 mph4.5 kmh 29.43 in996.6 mb 0.00 in0.0 mm 0.00 in0.0 mm 0.00 in0.0 mm
10:08 AM 20.5°F-6.4°C 16.8°F-8.4°C 69% 5.7 mph SSE9.2 kmh SSE 5.7 mph9.2 kmh 29.43 in996.6 mb 0.00 in0.0 mm 0.00 in0.0 mm 0.00 in0.0 mm
10:11 AM 20.3°F-6.5°C 16.6°F-8.6°C 68% Calm Calm -- 29.42 in996.3 mb 0.00 in0.0 mm 0.00 in0.0 mm 0.00 in0.0 mm
10:14 AM 20.5°F-6.4°C 16.2°F-8.8°C 68% 4.4 mph E7.1 kmh E 4.4 mph7.1 kmh 29.42 in996.3 mb 0.00 in0.0 mm 0.00 in0.0 mm 0.00 in0.0 mm
10:17 AM 20.9°F-6.2°C 16.3°F-8.7°C 68% 6.7 mph SE10.8 kmh SE 6.7 mph10.8 kmh 29.42 in996.3 mb 0.00 in0.0 mm 0.00 in0.0 mm 0.00 in0.0 mm
10:20 AM 21.8°F-5.7°C 16.8°F-8.4°C 68% 8.5 mph SE13.7 kmh SE 8.6 mph13.8 kmh 29.42 in996.3 mb 0.00 in0.0 mm 0.00 in0.0 mm 0.00 in0.0 mm
10:23 AM 21.8°F-5.7°C 16.9°F-8.4°C 67% 4.9 mph ESE7.9 kmh ESE 4.9 mph7.9 kmh 29.42 in996.3 mb 0.00 in0.0 mm 0.00 in0.0 mm 0.00 in0.0 mm
10:26 AM 22.3°F-5.4°C 17.3°F-8.2°C 67% 3.6 mph SSE5.8 kmh SSE 3.7 mph6.0 kmh 29.42 in996.3 mb 0.00 in0.0 mm 0.00 in0.0 mm 0.00 in0.0 mm
10:29 AM 21.4°F-5.9°C 16.5°F-8.6°C 66% 11.6 mph SSE18.7 kmh SSE 11.6 mph18.7 kmh 29.42 in996.3 mb 0.00 in0.0 mm 0.00 in0.0 mm 0.00 in0.0 mm
10:32 AM 21.7°F-5.7°C 16.7°F-8.5°C 67% 12.0 mph SE19.3 kmh SE 12.1 mph19.5 kmh 29.42 in996.3 mb 0.00 in0.0 mm 0.00 in0.0 mm 0.00 in0.0 mm
10:35 AM 22.1°F-5.5°C 16.9°F-8.4°C 66% 4.0 mph SE6.4 kmh SE 4.1 mph6.6 kmh 29.42 in996.3 mb 0.00 in0.0 mm 0.00 in0.0 mm 0.00 in0.0 mm
10:38 AM 22.4°F-5.3°C 17.2°F-8.2°C 66% 2.8 mph S4.5 kmh S 2.8 mph4.5 kmh 29.42 in996.3 mb 0.00 in0.0 mm 0.00 in0.0 mm 0.00 in0.0 mm
10:41 AM 22.2°F-5.4°C 17.0°F-8.3°C 66% 3.2 mph SE5.1 kmh SE 3.2 mph5.1 kmh 29.42 in996.3 mb 0.00 in0.0 mm 0.00 in0.0 mm 0.00 in0.0 mm
10:44 AM 21.7°F-5.7°C 16.9°F-8.4°C 66% 8.0 mph SSE12.9 kmh SSE 8.0 mph12.9 kmh 29.42 in996.3 mb 0.00 in0.0 mm 0.00 in0.0 mm 0.00 in0.0 mm
10:47 AM 21.9°F-5.6°C 17.1°F-8.3°C 66% 7.1 mph ESE11.4 kmh ESE 7.1 mph11.4 kmh 29.41 in995.9 mb 0.00 in0.0 mm 0.00 in0.0 mm 0.00 in0.0 mm
10:50 AM 22.3°F-5.4°C 17.4°F-8.1°C 66% 1.6 mph SE2.6 kmh SE 1.6 mph2.6 kmh 29.41 in995.9 mb 0.00 in0.0 mm 0.00 in0.0 mm 0.00 in0.0 mm
10:53 AM 22.4°F-5.3°C 16.9°F-8.4°C 66% 10.1 mph SE16.3 kmh SE 10.2 mph16.4 kmh 29.41 in995.9 mb 0.00 in0.0 mm 0.00 in0.0 mm 0.00 in0.0 mm
10:56 AM 23.2°F-4.9°C 17.4°F-8.1°C 65% 0.8 mph SSE1.3 kmh SSE 0.8 mph1.3 kmh 29.41 in995.9 mb 0.00 in0.0 mm 0.00 in0.0 mm 0.00 in0.0 mm
10:59 AM 23.2°F-4.9°C 17.7°F-7.9°C 65% 4.7 mph NNW7.6 kmh NNW 4.8 mph7.7 kmh 29.41 in995.9 mb 0.00 in0.0 mm 0.00 in0.0 mm 0.00 in0.0 mm
11:02 AM 23.5°F-4.7°C 17.6°F-8.0°C 64% 3.2 mph SE5.1 kmh SE 3.3 mph5.3 kmh 29.41 in995.9 mb 0.00 in0.0 mm 0.00 in0.0 mm 0.00 in0.0 mm
11:05 AM 24.1°F-4.4°C 17.9°F-7.8°C 65% 1.2 mph SE1.9 kmh SE 1.2 mph1.9 kmh 29.41 in995.9 mb 0.00 in0.0 mm 0.00 in0.0 mm 0.00 in0.0 mm
11:08 AM 24.2°F-4.3°C 18.1°F-7.7°C 64% 0.8 mph E1.3 kmh E 0.8 mph1.3 kmh 29.41 in995.9 mb 0.00 in0.0 mm 0.00 in0.0 mm 0.00 in0.0 mm
11:11 AM 23.5°F-4.7°C 17.6°F-8.0°C 63% 1.2 mph SE1.9 kmh SE 1.2 mph1.9 kmh 29.41 in995.9 mb 0.00 in0.0 mm 0.00 in0.0 mm 0.00 in0.0 mm
11:14 AM 23.7°F-4.6°C 18.2°F-7.7°C 64% 4.0 mph ESE6.4 kmh ESE 4.0 mph6.4 kmh 29.41 in995.9 mb 0.00 in0.0 mm 0.00 in0.0 mm 0.00 in0.0 mm
11:17 AM 23.8°F-4.6°C 17.9°F-7.8°C 63% 3.2 mph SSE5.1 kmh SSE 3.3 mph5.3 kmh 29.41 in995.9 mb 0.00 in0.0 mm 0.00 in0.0 mm 0.00 in0.0 mm
11:20 AM 23.8°F-4.6°C 18.2°F-7.7°C 63% 4.0 mph NNW6.4 kmh NNW 4.1 mph6.6 kmh 29.41 in995.9 mb 0.00 in0.0 mm 0.00 in0.0 mm 0.00 in0.0 mm
11:23 AM 24.6°F-4.1°C 18.7°F-7.4°C 64% 5.2 mph ESE8.4 kmh ESE 5.2 mph8.4 kmh 29.41 in995.9 mb 0.00 in0.0 mm 0.00 in0.0 mm 0.00 in0.0 mm
11:26 AM 24.2°F-4.3°C 18.6°F-7.4°C 62% 0.8 mph NNW1.3 kmh NNW 0.8 mph1.3 kmh 29.41 in995.9 mb 0.00 in0.0 mm 0.00 in0.0 mm 0.00 in0.0 mm
11:29 AM 23.7°F-4.6°C 18.0°F-7.8°C 62% 4.7 mph NNW7.6 kmh NNW 4.8 mph7.7 kmh 29.41 in995.9 mb 0.00 in0.0 mm 0.00 in0.0 mm 0.00 in0.0 mm
11:32 AM 23.9°F-4.5°C 18.1°F-7.7°C 63% 6.0 mph SSE9.7 kmh SSE 6.0 mph9.7 kmh 29.41 in995.9 mb 0.00 in0.0 mm 0.00 in0.0 mm 0.00 in0.0 mm
11:35 AM 24.6°F-4.1°C 18.5°F-7.5°C 63% 4.0 mph SE6.4 kmh SE 4.1 mph6.6 kmh 29.41 in995.9 mb 0.00 in0.0 mm 0.00 in0.0 mm 0.00 in0.0 mm
11:38 AM 24.7°F-4.1°C 18.6°F-7.4°C 62% 7.1 mph SE11.4 kmh SE 7.2 mph11.6 kmh 29.41 in995.9 mb 0.00 in0.0 mm 0.00 in0.0 mm 0.00 in0.0 mm
11:41 AM 24.4°F-4.2°C 18.7°F-7.4°C 62% 7.4 mph NNW11.9 kmh NNW 7.5 mph12.1 kmh 29.40 in995.6 mb 0.00 in0.0 mm 0.00 in0.0 mm 0.00 in0.0 mm
11:44 AM 24.9°F-3.9°C 18.6°F-7.4°C 61% 6.8 mph SE10.9 kmh SE 6.8 mph10.9 kmh 29.40 in995.6 mb 0.00 in0.0 mm 0.00 in0.0 mm 0.00 in0.0 mm
11:47 AM 24.8°F-4.0°C 18.5°F-7.5°C 62% 1.6 mph SE2.6 kmh SE 1.6 mph2.6 kmh 29.41 in995.9 mb 0.00 in0.0 mm 0.00 in0.0 mm 0.00 in0.0 mm
11:50 AM 26.2°F-3.2°C 19.3°F-7.1°C 62% 3.6 mph E5.8 kmh E 3.7 mph6.0 kmh 29.40 in995.6 mb 0.00 in0.0 mm 0.00 in0.0 mm 0.00 in0.0 mm
11:53 AM 25.5°F-3.6°C 19.5°F-6.9°C 61% 6.0 mph E9.7 kmh E 6.0 mph9.7 kmh 29.40 in995.6 mb 0.00 in0.0 mm 0.00 in0.0 mm 0.00 in0.0 mm
11:56 AM 26.2°F-3.2°C 19.5°F-6.9°C 60% 9.6 mph ESE15.4 kmh ESE 9.6 mph15.4 kmh 29.40 in995.6 mb 0.00 in0.0 mm 0.00 in0.0 mm 0.00 in0.0 mm
11:59 AM 25.9°F-3.4°C 19.5°F-6.9°C 60% 6.1 mph NNW9.8 kmh NNW 6.1 mph9.8 kmh 29.39 in995.3 mb 0.00 in0.0 mm 0.00 in0.0 mm 0.00 in0.0 mm
12:02 PM 25.8°F-3.4°C 19.6°F-6.9°C 59% Calm Calm -- 29.39 in995.3 mb 0.00 in0.0 mm 0.00 in0.0 mm 0.00 in0.0 mm
12:05 PM 26.4°F-3.1°C 20.2°F-6.6°C 59% Calm Calm -- 29.39 in995.3 mb 0.00 in0.0 mm 0.00 in0.0 mm 0.00 in0.0 mm
12:08 PM 26.3°F-3.2°C 19.3°F-7.1°C 58% 11.0 mph SE17.7 kmh SE 11.1 mph17.9 kmh 29.39 in995.3 mb 0.00 in0.0 mm 0.00 in0.0 mm 0.00 in0.0 mm
12:11 PM 26.4°F-3.1°C 19.5°F-6.9°C 59% 9.2 mph NNW14.8 kmh NNW 9.3 mph15.0 kmh 29.39 in995.3 mb 0.00 in0.0 mm 0.00 in0.0 mm 0.00 in0.0 mm
12:14 PM 26.9°F-2.8°C 19.8°F-6.8°C 59% 1.2 mph ESE1.9 kmh ESE 1.2 mph1.9 kmh 29.39 in995.3 mb 0.00 in0.0 mm 0.00 in0.0 mm 0.00 in0.0 mm
12:17 PM 26.2°F-3.2°C 19.3°F-7.1°C 58% 6.5 mph NNW10.5 kmh NNW 6.5 mph10.5 kmh 29.38 in994.9 mb 0.00 in0.0 mm 0.00 in0.0 mm 0.00 in0.0 mm
12:20 PM 26.7°F-2.9°C 20.5°F-6.4°C 60% Calm Calm -- 29.38 in994.9 mb 0.00 in0.0 mm 0.00 in0.0 mm 0.00 in0.0 mm
12:23 PM 27.2°F-2.7°C 18.9°F-7.3°C 58% 8.0 mph E12.9 kmh E 8.1 mph13.0 kmh 29.38 in994.9 mb 0.00 in0.0 mm 0.00 in0.0 mm 0.00 in0.0 mm
12:26 PM 26.8°F-2.9°C 19.5°F-6.9°C 57% 2.4 mph E3.9 kmh E 2.4 mph3.9 kmh 29.38 in994.9 mb 0.00 in0.0 mm 0.00 in0.0 mm 0.00 in0.0 mm
12:29 PM 26.8°F-2.9°C 19.5°F-6.9°C 58% 0.4 mph NNW0.6 kmh NNW 0.4 mph0.6 kmh 29.38 in994.9 mb 0.00 in0.0 mm 0.00 in0.0 mm 0.00 in0.0 mm
12:32 PM 27.6°F-2.4°C 20.1°F-6.6°C 58% 7.0 mph NNW11.3 kmh NNW 7.1 mph11.4 kmh 29.38 in994.9 mb 0.00 in0.0 mm 0.00 in0.0 mm 0.00 in0.0 mm
12:35 PM 26.8°F-2.9°C 19.9°F-6.7°C 58% 6.0 mph ESE9.7 kmh ESE 6.0 mph9.7 kmh 29.38 in994.9 mb 0.00 in0.0 mm 0.00 in0.0 mm 0.00 in0.0 mm
12:38 PM 25.7°F-3.5°C 19.5°F-6.9°C 57% 2.0 mph SE3.2 kmh SE 2.0 mph3.2 kmh 29.38 in994.9 mb 0.00 in0.0 mm 0.00 in0.0 mm 0.00 in0.0 mm
12:41 PM 25.0°F-3.9°C 19.2°F-7.1°C 57% 7.3 mph E11.7 kmh E 7.3 mph11.7 kmh 29.38 in994.9 mb 0.00 in0.0 mm 0.00 in0.0 mm 0.00 in0.0 mm
12:44 PM 27.2°F-2.7°C 20.0°F-6.7°C 59% 1.6 mph NNW2.6 kmh NNW 1.6 mph2.6 kmh 29.38 in994.9 mb 0.00 in0.0 mm 0.00 in0.0 mm 0.00 in0.0 mm
12:47 PM 27.6°F-2.4°C 19.9°F-6.7°C 58% 8.7 mph SE14.0 kmh SE 8.8 mph14.2 kmh 29.38 in994.9 mb 0.00 in0.0 mm 0.00 in0.0 mm 0.00 in0.0 mm
12:50 PM 28.0°F-2.2°C 19.6°F-6.9°C 58% 12.8 mph SE20.6 kmh SE 12.8 mph20.6 kmh 29.38 in994.9 mb 0.00 in0.0 mm 0.00 in0.0 mm 0.00 in0.0 mm
12:53 PM 28.4°F-2.0°C 20.0°F-6.7°C 58% 6.5 mph SE10.5 kmh SE 6.5 mph10.5 kmh 29.38 in994.9 mb 0.00 in0.0 mm 0.00 in0.0 mm 0.00 in0.0 mm
12:56 PM 28.7°F-1.8°C 18.6°F-7.4°C 57% 7.7 mph SSE12.4 kmh SSE 7.8 mph12.6 kmh 29.38 in994.9 mb 0.00 in0.0 mm 0.00 in0.0 mm 0.00 in0.0 mm
12:59 PM 28.3°F-2.1°C 18.1°F-7.7°C 56% 6.1 mph SE9.8 kmh SE 6.1 mph9.8 kmh 29.38 in994.9 mb 0.00 in0.0 mm 0.00 in0.0 mm 0.00 in0.0 mm
01:02 PM 28.2°F-2.1°C 19.4°F-7.0°C 56% 12.9 mph SE20.8 kmh SE 13.1 mph21.1 kmh 29.37 in994.6 mb 0.00 in0.0 mm 0.00 in0.0 mm 0.00 in0.0 mm
01:05 PM 27.5°F-2.5°C 19.3°F-7.1°C 56% 7.1 mph SE11.4 kmh SE 7.2 mph11.6 kmh 29.38 in994.9 mb 0.00 in0.0 mm 0.00 in0.0 mm 0.00 in0.0 mm
01:08 PM 29.2°F-1.6°C 18.4°F-7.6°C 56% 3.2 mph NE5.1 kmh NE 3.2 mph5.1 kmh 29.37 in994.6 mb 0.00 in0.0 mm 0.00 in0.0 mm 0.00 in0.0 mm
01:11 PM 28.7°F-1.8°C 18.5°F-7.5°C 55% 9.6 mph SE15.4 kmh SE 9.7 mph15.6 kmh 29.37 in994.6 mb 0.00 in0.0 mm 0.00 in0.0 mm 0.00 in0.0 mm
01:14 PM 29.5°F-1.4°C 19.0°F-7.2°C 55% 7.2 mph NNW11.6 kmh NNW 7.3 mph11.7 kmh 29.37 in994.6 mb 0.00 in0.0 mm 0.00 in0.0 mm 0.00 in0.0 mm
01:17 PM 29.2°F-1.6°C 19.4°F-7.0°C 54% Calm Calm -- 29.36 in994.2 mb 0.00 in0.0 mm 0.00 in0.0 mm 0.00 in0.0 mm
01:20 PM 28.7°F-1.8°C 19.3°F-7.1°C 54% 5.9 mph E9.5 kmh E 6.0 mph9.7 kmh 29.36 in994.2 mb 0.00 in0.0 mm 0.00 in0.0 mm 0.00 in0.0 mm
01:23 PM 29.3°F-1.5°C 19.7°F-6.8°C 55% 3.6 mph ESE5.8 kmh ESE 3.6 mph5.8 kmh 29.36 in994.2 mb 0.00 in0.0 mm 0.00 in0.0 mm 0.00 in0.0 mm
01:26 PM 29.9°F-1.2°C 19.7°F-6.8°C 54% Calm Calm -- 29.36 in994.2 mb 0.00 in0.0 mm 0.00 in0.0 mm 0.00 in0.0 mm
01:29 PM 30.1°F-1.1°C 19.7°F-6.8°C 54% 4.0 mph ESE6.4 kmh ESE 4.0 mph6.4 kmh 29.36 in994.2 mb 0.00 in0.0 mm 0.00 in0.0 mm 0.00 in0.0 mm
01:32 PM 30.5°F-0.8°C 19.7°F-6.8°C 53% 12.4 mph NNW20.0 kmh NNW 12.4 mph20.0 kmh 29.36 in994.2 mb 0.00 in0.0 mm 0.00 in0.0 mm 0.00 in0.0 mm
01:35 PM 30.9°F-0.6°C 19.7°F-6.8°C 54% 4.1 mph ESE6.6 kmh ESE 4.1 mph6.6 kmh 29.36 in994.2 mb 0.00 in0.0 mm 0.00 in0.0 mm 0.00 in0.0 mm
01:38 PM 30.2°F-1.0°C 19.7°F-6.8°C 54% 2.8 mph ENE4.5 kmh ENE 2.9 mph4.7 kmh 29.36 in994.2 mb 0.00 in0.0 mm 0.00 in0.0 mm 0.00 in0.0 mm
01:41 PM 30.1°F-1.1°C 19.5°F-6.9°C 53% 6.8 mph ESE10.9 kmh ESE 6.8 mph10.9 kmh 29.36 in994.2 mb 0.00 in0.0 mm 0.00 in0.0 mm 0.00 in0.0 mm
01:44 PM 30.2°F-1.0°C 18.7°F-7.4°C 53% 5.2 mph SSE8.4 kmh SSE 5.2 mph8.4 kmh 29.36 in994.2 mb 0.00 in0.0 mm 0.00 in0.0 mm 0.00 in0.0 mm
01:47 PM 30.1°F-1.1°C 18.8°F-7.3°C 53% 5.5 mph NNW8.9 kmh NNW 5.6 mph9.0 kmh 29.36 in994.2 mb 0.00 in0.0 mm 0.00 in0.0 mm 0.00 in0.0 mm
01:50 PM 30.7°F-0.7°C 18.8°F-7.3°C 54% 8.5 mph SE13.7 kmh SE 8.6 mph13.8 kmh 29.35 in993.9 mb 0.00 in0.0 mm 0.00 in0.0 mm 0.00 in0.0 mm
01:56 PM 29.3°F-1.5°C 19.4°F-7.0°C 53% 8.9 mph NNW14.3 kmh NNW 9.0 mph14.5 kmh 29.35 in993.9 mb 0.00 in0.0 mm 0.00 in0.0 mm 0.00 in0.0 mm
01:59 PM 30.1°F-1.1°C 19.4°F-7.0°C 54% 2.4 mph SSE3.9 kmh SSE 2.4 mph3.9 kmh 29.35 in993.9 mb 0.00 in0.0 mm 0.00 in0.0 mm 0.00 in0.0 mm
02:02 PM 30.8°F-0.7°C 19.6°F-6.9°C 54% 2.0 mph ESE3.2 kmh ESE 2.0 mph3.2 kmh 29.35 in993.9 mb 0.00 in0.0 mm 0.00 in0.0 mm 0.00 in0.0 mm
02:05 PM 29.9°F-1.2°C 19.3°F-7.1°C 53% 5.2 mph SE8.4 kmh SE 5.2 mph8.4 kmh 29.35 in993.9 mb 0.00 in0.0 mm 0.00 in0.0 mm 0.00 in0.0 mm
02:08 PM 28.7°F-1.8°C 19.1°F-7.2°C 53% 5.6 mph ESE9.0 kmh ESE 5.7 mph9.2 kmh 29.35 in993.9 mb 0.00 in0.0 mm 0.00 in0.0 mm 0.00 in0.0 mm
02:11 PM 29.3°F-1.5°C 19.5°F-6.9°C 54% 5.7 mph SE9.2 kmh SE 5.7 mph9.2 kmh 29.35 in993.9 mb 0.00 in0.0 mm 0.00 in0.0 mm 0.00 in0.0 mm
02:14 PM 29.5°F-1.4°C 19.5°F-6.9°C 54% 2.8 mph ESE4.5 kmh ESE 2.8 mph4.5 kmh 29.35 in993.9 mb 0.00 in0.0 mm 0.00 in0.0 mm 0.00 in0.0 mm
02:17 PM 29.4°F-1.4°C 19.4°F-7.0°C 54% 3.1 mph NNW5.0 kmh NNW 3.1 mph5.0 kmh 29.35 in993.9 mb 0.00 in0.0 mm 0.00 in0.0 mm 0.00 in0.0 mm
02:20 PM 30.0°F-1.1°C 19.8°F-6.8°C 54% 3.5 mph E5.6 kmh E 3.5 mph5.6 kmh 29.36 in994.2 mb 0.00 in0.0 mm 0.00 in0.0 mm 0.00 in0.0 mm
02:23 PM 30.4°F-0.9°C 19.7°F-6.8°C 54% 2.8 mph NNW4.5 kmh NNW 2.8 mph4.5 kmh 29.35 in993.9 mb 0.00 in0.0 mm 0.00 in0.0 mm 0.00 in0.0 mm
02:26 PM 30.5°F-0.8°C 19.8°F-6.8°C 54% 0.8 mph SE1.3 kmh SE 0.8 mph1.3 kmh 29.35 in993.9 mb 0.00 in0.0 mm 0.00 in0.0 mm 0.00 in0.0 mm
02:29 PM 30.5°F-0.8°C 19.6°F-6.9°C 54% 2.8 mph NNW4.5 kmh NNW 2.8 mph4.5 kmh 29.35 in993.9 mb 0.00 in0.0 mm 0.00 in0.0 mm 0.00 in0.0 mm
02:32 PM 30.5°F-0.8°C 19.9°F-6.7°C 53% 2.0 mph ESE3.2 kmh ESE 2.0 mph3.2 kmh 29.35 in993.9 mb 0.00 in0.0 mm 0.00 in0.0 mm 0.00 in0.0 mm
02:35 PM 30.8°F-0.7°C 20.1°F-6.6°C 53% 0.8 mph NNW1.3 kmh NNW 0.8 mph1.3 kmh 29.35 in993.9 mb 0.00 in0.0 mm 0.00 in0.0 mm 0.00 in0.0 mm
02:38 PM 30.8°F-0.7°C 20.2°F-6.6°C 52% 2.4 mph NNW3.9 kmh NNW 2.4 mph3.9 kmh 29.35 in993.9 mb 0.00 in0.0 mm 0.00 in0.0 mm 0.00 in0.0 mm
02:41 PM 30.4°F-0.9°C 20.7°F-6.3°C 53% 4.4 mph ENE7.1 kmh ENE 4.4 mph7.1 kmh 29.35 in993.9 mb 0.00 in0.0 mm 0.00 in0.0 mm 0.00 in0.0 mm
02:44 PM 30.7°F-0.7°C 20.0°F-6.7°C 52% 6.5 mph NNW10.5 kmh NNW 6.5 mph10.5 kmh 29.35 in993.9 mb 0.00 in0.0 mm 0.00 in0.0 mm 0.00 in0.0 mm
02:47 PM 30.5°F-0.8°C 19.8°F-6.8°C 52% 2.0 mph SE3.2 kmh SE 2.0 mph3.2 kmh 29.35 in993.9 mb 0.00 in0.0 mm 0.00 in0.0 mm 0.00 in0.0 mm
02:50 PM 30.5°F-0.8°C 19.5°F-6.9°C 52% 5.6 mph E9.0 kmh E 5.6 mph9.0 kmh 29.35 in993.9 mb 0.00 in0.0 mm 0.00 in0.0 mm 0.00 in0.0 mm
02:53 PM 30.9°F-0.6°C 20.2°F-6.6°C 52% 1.2 mph NE1.9 kmh NE 1.2 mph1.9 kmh 29.35 in993.9 mb 0.00 in0.0 mm 0.00 in0.0 mm 0.00 in0.0 mm
02:56 PM 30.5°F-0.8°C 19.8°F-6.8°C 52% 5.1 mph E8.2 kmh E 5.2 mph8.4 kmh 29.35 in993.9 mb 0.00 in0.0 mm 0.00 in0.0 mm 0.00 in0.0 mm
02:59 PM 30.5°F-0.8°C 20.1°F-6.6°C 52% 3.6 mph SE5.8 kmh SE 3.6 mph5.8 kmh 29.34 in993.6 mb 0.00 in0.0 mm 0.00 in0.0 mm 0.00 in0.0 mm
03:02 PM 30.1°F-1.1°C 20.0°F-6.7°C 51% 5.9 mph ESE9.5 kmh ESE 5.9 mph9.5 kmh 29.35 in993.9 mb 0.00 in0.0 mm 0.00 in0.0 mm 0.00 in0.0 mm
03:05 PM 30.3°F-0.9°C 19.9°F-6.7°C 51% 3.2 mph NE5.1 kmh NE 3.2 mph5.1 kmh 29.35 in993.9 mb 0.00 in0.0 mm 0.00 in0.0 mm 0.00 in0.0 mm
03:08 PM 30.8°F-0.7°C 20.6°F-6.3°C 52% 1.2 mph E1.9 kmh E 1.2 mph1.9 kmh 29.35 in993.9 mb 0.00 in0.0 mm 0.00 in0.0 mm 0.00 in0.0 mm
03:11 PM 30.9°F-0.6°C 19.7°F-6.8°C 51% 5.2 mph ESE8.4 kmh ESE 5.3 mph8.5 kmh 29.35 in993.9 mb 0.00 in0.0 mm 0.00 in0.0 mm 0.00 in0.0 mm
03:14 PM 30.9°F-0.6°C 20.1°F-6.6°C 51% 6.0 mph SE9.7 kmh SE 6.0 mph9.7 kmh 29.35 in993.9 mb 0.00 in0.0 mm 0.00 in0.0 mm 0.00 in0.0 mm
03:17 PM 30.7°F-0.7°C 19.7°F-6.8°C 50% 4.3 mph SSE6.9 kmh SSE 4.3 mph6.9 kmh 29.35 in993.9 mb 0.00 in0.0 mm 0.00 in0.0 mm 0.00 in0.0 mm
03:20 PM 30.7°F-0.7°C 19.8°F-6.8°C 51% 4.4 mph ENE7.1 kmh ENE 4.4 mph7.1 kmh 29.34 in993.6 mb 0.00 in0.0 mm 0.00 in0.0 mm 0.00 in0.0 mm
03:23 PM 30.5°F-0.8°C 19.4°F-7.0°C 51% 2.8 mph SE4.5 kmh SE 2.9 mph4.7 kmh 29.35 in993.9 mb 0.00 in0.0 mm 0.00 in0.0 mm 0.00 in0.0 mm
03:26 PM 30.7°F-0.7°C 19.8°F-6.8°C 52% 2.8 mph SSE4.5 kmh SSE 2.9 mph4.7 kmh 29.35 in993.9 mb 0.00 in0.0 mm 0.00 in0.0 mm 0.00 in0.0 mm
03:29 PM 30.7°F-0.7°C 19.9°F-6.7°C 52% 4.8 mph SE7.7 kmh SE 4.8 mph7.7 kmh 29.35 in993.9 mb 0.00 in0.0 mm 0.00 in0.0 mm 0.00 in0.0 mm
03:32 PM 31.0°F-0.6°C 20.2°F-6.6°C 52% 1.2 mph NE1.9 kmh NE 1.2 mph1.9 kmh 29.35 in993.9 mb 0.00 in0.0 mm 0.00 in0.0 mm 0.00 in0.0 mm
03:35 PM 30.3°F-0.9°C 19.8°F-6.8°C 51% 3.2 mph SE5.1 kmh SE 3.3 mph5.3 kmh 29.35 in993.9 mb 0.00 in0.0 mm 0.00 in0.0 mm 0.00 in0.0 mm
03:38 PM 30.9°F-0.6°C 20.9°F-6.2°C 53% 2.4 mph E3.9 kmh E 2.4 mph3.9 kmh 29.35 in993.9 mb 0.00 in0.0 mm 0.00 in0.0 mm 0.00 in0.0 mm
03:41 PM 30.4°F-0.9°C 20.5°F-6.4°C 52% 4.8 mph SE7.7 kmh SE 4.8 mph7.7 kmh 29.35 in993.9 mb 0.00 in0.0 mm 0.00 in0.0 mm 0.00 in0.0 mm
03:44 PM 29.9°F-1.2°C 19.5°F-6.9°C 51% 3.6 mph E5.8 kmh E 3.6 mph5.8 kmh 29.35 in993.9 mb 0.00 in0.0 mm 0.00 in0.0 mm 0.00 in0.0 mm
03:47 PM 30.3°F-0.9°C 20.0°F-6.7°C 52% 5.6 mph ESE9.0 kmh ESE 5.6 mph9.0 kmh 29.35 in993.9 mb 0.00 in0.0 mm 0.00 in0.0 mm 0.00 in0.0 mm
03:50 PM 30.4°F-0.9°C 19.8°F-6.8°C 51% 6.1 mph ESE9.8 kmh ESE 6.1 mph9.8 kmh 29.35 in993.9 mb 0.00 in0.0 mm 0.00 in0.0 mm 0.00 in0.0 mm
03:53 PM 30.7°F-0.7°C 19.9°F-6.7°C 52% Calm Calm -- 29.36 in994.2 mb 0.00 in0.0 mm 0.00 in0.0 mm 0.00 in0.0 mm
03:56 PM 30.3°F-0.9°C 19.5°F-6.9°C 51% 2.4 mph SSW3.9 kmh SSW 2.4 mph3.9 kmh 29.36 in994.2 mb 0.00 in0.0 mm 0.00 in0.0 mm 0.00 in0.0 mm
03:59 PM 30.5°F-0.8°C 19.4°F-7.0°C 51% 3.2 mph ENE5.1 kmh ENE 3.3 mph5.3 kmh 29.36 in994.2 mb 0.00 in0.0 mm 0.00 in0.0 mm 0.00 in0.0 mm
04:02 PM 30.3°F-0.9°C 19.3°F-7.1°C 52% 4.4 mph NNW7.1 kmh NNW 4.4 mph7.1 kmh 29.37 in994.6 mb 0.00 in0.0 mm 0.00 in0.0 mm 0.00 in0.0 mm
04:05 PM 30.2°F-1.0°C 19.3°F-7.1°C 52% 7.4 mph SE11.9 kmh SE 7.5 mph12.1 kmh 29.37 in994.6 mb 0.00 in0.0 mm 0.00 in0.0 mm 0.00 in0.0 mm
04:08 PM 30.2°F-1.0°C 19.5°F-6.9°C 52% 3.8 mph SE6.1 kmh SE 3.8 mph6.1 kmh 29.38 in994.9 mb 0.00 in0.0 mm 0.00 in0.0 mm 0.00 in0.0 mm
04:11 PM 30.1°F-1.1°C 19.3°F-7.1°C 51% 6.0 mph SE9.7 kmh SE 6.0 mph9.7 kmh 29.37 in994.6 mb 0.00 in0.0 mm 0.00 in0.0 mm 0.00 in0.0 mm
04:14 PM 30.3°F-0.9°C 19.6°F-6.9°C 52% 0.4 mph SE0.6 kmh SE 0.4 mph0.6 kmh 29.38 in994.9 mb 0.00 in0.0 mm 0.00 in0.0 mm 0.00 in0.0 mm
04:17 PM 30.0°F-1.1°C 19.2°F-7.1°C 52% 1.5 mph ESE2.4 kmh ESE 1.6 mph2.6 kmh 29.38 in994.9 mb 0.00 in0.0 mm 0.00 in0.0 mm 0.00 in0.0 mm
04:20 PM 29.9°F-1.2°C 19.4°F-7.0°C 52% 2.4 mph SSE3.9 kmh SSE 2.4 mph3.9 kmh 29.38 in994.9 mb 0.00 in0.0 mm 0.00 in0.0 mm 0.00 in0.0 mm
04:23 PM 29.8°F-1.2°C 19.3°F-7.1°C 53% 1.2 mph ESE1.9 kmh ESE 1.2 mph1.9 kmh 29.38 in994.9 mb 0.00 in0.0 mm 0.00 in0.0 mm 0.00 in0.0 mm
04:26 PM 29.5°F-1.4°C 19.5°F-6.9°C 53% 6.1 mph ESE9.8 kmh ESE 6.1 mph9.8 kmh 29.38 in994.9 mb 0.00 in0.0 mm 0.00 in0.0 mm 0.00 in0.0 mm
04:29 PM 29.3°F-1.5°C 19.2°F-7.1°C 52% 0.4 mph SE0.6 kmh SE 0.4 mph0.6 kmh 29.37 in994.6 mb 0.00 in0.0 mm 0.00 in0.0 mm 0.00 in0.0 mm
04:32 PM 29.3°F-1.5°C 19.2°F-7.1°C 53% 2.4 mph SE3.9 kmh SE 2.4 mph3.9 kmh 29.38 in994.9 mb 0.00 in0.0 mm 0.00 in0.0 mm 0.00 in0.0 mm
04:35 PM 29.2°F-1.6°C 19.7°F-6.8°C 53% 6.0 mph SSE9.7 kmh SSE 6.1 mph9.8 kmh 29.38 in994.9 mb 0.00 in0.0 mm 0.00 in0.0 mm 0.00 in0.0 mm
04:38 PM 29.2°F-1.6°C 19.0°F-7.2°C 53% 6.1 mph ESE9.8 kmh ESE 6.1 mph9.8 kmh 29.38 in994.9 mb 0.00 in0.0 mm 0.00 in0.0 mm 0.00 in0.0 mm
04:41 PM 29.0°F-1.7°C 19.3°F-7.1°C 53% 2.0 mph ESE3.2 kmh ESE 2.0 mph3.2 kmh 29.38 in994.9 mb 0.00 in0.0 mm 0.00 in0.0 mm 0.00 in0.0 mm
04:44 PM 29.1°F-1.6°C 19.5°F-6.9°C 53% 0.8 mph SE1.3 kmh SE 0.8 mph1.3 kmh 29.38 in994.9 mb 0.00 in0.0 mm 0.00 in0.0 mm 0.00 in0.0 mm
04:47 PM 29.1°F-1.6°C 19.6°F-6.9°C 53% Calm Calm -- 29.38 in994.9 mb 0.00 in0.0 mm 0.00 in0.0 mm 0.00 in0.0 mm
04:50 PM 28.9°F-1.7°C 19.7°F-6.8°C 54% 2.0 mph SE3.2 kmh SE 2.0 mph3.2 kmh 29.38 in994.9 mb 0.00 in0.0 mm 0.00 in0.0 mm 0.00 in0.0 mm
04:53 PM 28.6°F-1.9°C 19.5°F-6.9°C 54% 7.3 mph ESE11.7 kmh ESE 7.3 mph11.7 kmh 29.38 in994.9 mb 0.00 in0.0 mm 0.00 in0.0 mm 0.00 in0.0 mm
04:56 PM 28.3°F-2.1°C 19.5°F-6.9°C 54% 1.2 mph ESE1.9 kmh ESE 1.2 mph1.9 kmh 29.38 in994.9 mb 0.00 in0.0 mm 0.00 in0.0 mm 0.00 in0.0 mm
04:59 PM 28.2°F-2.1°C 19.7°F-6.8°C 55% 5.2 mph E8.4 kmh E 5.2 mph8.4 kmh 29.39 in995.3 mb 0.00 in0.0 mm 0.00 in0.0 mm 0.00 in0.0 mm
05:02 PM 28.1°F-2.2°C 19.6°F-6.9°C 54% 0.4 mph NNW0.6 kmh NNW 0.4 mph0.6 kmh 29.39 in995.3 mb 0.00 in0.0 mm 0.00 in0.0 mm 0.00 in0.0 mm
05:05 PM 27.8°F-2.3°C 19.5°F-6.9°C 54% 0.8 mph ESE1.3 kmh ESE 0.8 mph1.3 kmh 29.39 in995.3 mb 0.00 in0.0 mm 0.00 in0.0 mm 0.00 in0.0 mm
05:08 PM 27.7°F-2.4°C 19.9°F-6.7°C 55% 5.2 mph NNW8.4 kmh NNW 5.2 mph8.4 kmh 29.39 in995.3 mb 0.00 in0.0 mm 0.00 in0.0 mm 0.00 in0.0 mm
05:11 PM 27.6°F-2.4°C 19.4°F-7.0°C 55% 2.8 mph SE4.5 kmh SE 2.8 mph4.5 kmh 29.39 in995.3 mb 0.00 in0.0 mm 0.00 in0.0 mm 0.00 in0.0 mm
05:14 PM 27.4°F-2.6°C 19.5°F-6.9°C 55% 4.8 mph SE7.7 kmh SE 4.8 mph7.7 kmh 29.39 in995.3 mb 0.00 in0.0 mm 0.00 in0.0 mm 0.00 in0.0 mm
05:17 PM 27.3°F-2.6°C 19.8°F-6.8°C 55% Calm Calm -- 29.39 in995.3 mb 0.00 in0.0 mm 0.00 in0.0 mm 0.00 in0.0 mm
05:20 PM 27.2°F-2.7°C 19.8°F-6.8°C 55% 6.5 mph ESE10.5 kmh ESE 6.5 mph10.5 kmh 29.40 in995.6 mb 0.00 in0.0 mm 0.00 in0.0 mm 0.00 in0.0 mm
05:23 PM 26.9°F-2.8°C 20.1°F-6.6°C 56% Calm Calm -- 29.40 in995.6 mb 0.00 in0.0 mm 0.00 in0.0 mm 0.00 in0.0 mm
05:26 PM 26.9°F-2.8°C 20.0°F-6.7°C 56% Calm Calm -- 29.41 in995.9 mb 0.00 in0.0 mm 0.00 in0.0 mm 0.00 in0.0 mm
05:29 PM 26.7°F-2.9°C 20.0°F-6.7°C 56% 2.0 mph SE3.2 kmh SE 2.0 mph3.2 kmh 29.41 in995.9 mb 0.00 in0.0 mm 0.00 in0.0 mm 0.00 in0.0 mm
05:32 PM 26.6°F-3.0°C 20.0°F-6.7°C 56% Calm Calm -- 29.41 in995.9 mb 0.00 in0.0 mm 0.00 in0.0 mm 0.00 in0.0 mm
05:35 PM 26.5°F-3.1°C 20.0°F-6.7°C 56% 2.0 mph SE3.2 kmh SE 2.0 mph3.2 kmh 29.41 in995.9 mb 0.00 in0.0 mm 0.00 in0.0 mm 0.00 in0.0 mm
05:38 PM 26.5°F-3.1°C 19.6°F-6.9°C 56% 0.4 mph SSE0.6 kmh SSE 0.4 mph0.6 kmh 29.41 in995.9 mb 0.00 in0.0 mm 0.00 in0.0 mm 0.00 in0.0 mm
05:41 PM 26.3°F-3.2°C 19.7°F-6.8°C 56% 3.6 mph NNW5.8 kmh NNW 3.7 mph6.0 kmh 29.41 in995.9 mb 0.00 in0.0 mm 0.00 in0.0 mm 0.00 in0.0 mm
05:44 PM 26.2°F-3.2°C 19.6°F-6.9°C 57% 4.8 mph E7.7 kmh E 4.9 mph7.9 kmh 29.41 in995.9 mb 0.00 in0.0 mm 0.00 in0.0 mm 0.00 in0.0 mm
05:47 PM 25.9°F-3.4°C 20.0°F-6.7°C 57% 4.0 mph NNW6.4 kmh NNW 4.0 mph6.4 kmh 29.41 in995.9 mb 0.00 in0.0 mm 0.00 in0.0 mm 0.00 in0.0 mm
05:50 PM 25.9°F-3.4°C 19.8°F-6.8°C 57% Calm Calm -- 29.41 in995.9 mb 0.00 in0.0 mm 0.00 in0.0 mm 0.00 in0.0 mm
05:53 PM 25.7°F-3.5°C 20.5°F-6.4°C 57% 0.8 mph E1.3 kmh E 0.8 mph1.3 kmh 29.41 in995.9 mb 0.00 in0.0 mm 0.00 in0.0 mm 0.00 in0.0 mm
05:56 PM 25.6°F-3.6°C 20.1°F-6.6°C 57% 6.0 mph E9.7 kmh E 6.0 mph9.7 kmh 29.41 in995.9 mb 0.00 in0.0 mm 0.00 in0.0 mm 0.00 in0.0 mm
05:59 PM 25.6°F-3.6°C 19.7°F-6.8°C 57% 2.0 mph E3.2 kmh E 2.0 mph3.2 kmh 29.42 in996.3 mb 0.00 in0.0 mm 0.00 in0.0 mm 0.00 in0.0 mm
06:02 PM 25.5°F-3.6°C 19.8°F-6.8°C 58% 4.8 mph ESE7.7 kmh ESE 4.8 mph7.7 kmh 29.42 in996.3 mb 0.00 in0.0 mm 0.00 in0.0 mm 0.00 in0.0 mm
06:05 PM 25.3°F-3.7°C 19.9°F-6.7°C 58% Calm Calm -- 29.42 in996.3 mb 0.00 in0.0 mm 0.00 in0.0 mm 0.00 in0.0 mm
06:08 PM 25.3°F-3.7°C 19.8°F-6.8°C 58% 6.4 mph ESE10.3 kmh ESE 6.4 mph10.3 kmh 29.42 in996.3 mb 0.00 in0.0 mm 0.00 in0.0 mm 0.00 in0.0 mm
06:11 PM 25.3°F-3.7°C 19.7°F-6.8°C 58% 2.8 mph E4.5 kmh E 2.8 mph4.5 kmh 29.42 in996.3 mb 0.00 in0.0 mm 0.00 in0.0 mm 0.00 in0.0 mm
06:14 PM 24.9°F-3.9°C 20.0°F-6.7°C 59% Calm Calm -- 29.42 in996.3 mb 0.00 in0.0 mm 0.00 in0.0 mm 0.00 in0.0 mm
06:17 PM 24.8°F-4.0°C 20.4°F-6.4°C 59% Calm Calm -- 29.42 in996.3 mb 0.00 in0.0 mm 0.00 in0.0 mm 0.00 in0.0 mm
06:20 PM 24.9°F-3.9°C 20.2°F-6.6°C 59% 3.2 mph ENE5.1 kmh ENE 3.2 mph5.1 kmh 29.42 in996.3 mb 0.00 in0.0 mm 0.00 in0.0 mm 0.00 in0.0 mm
06:23 PM 25.0°F-3.9°C 20.3°F-6.5°C 59% 4.8 mph NNW7.7 kmh NNW 4.9 mph7.9 kmh 29.43 in996.6 mb 0.00 in0.0 mm 0.00 in0.0 mm 0.00 in0.0 mm
06:26 PM 25.0°F-3.9°C 20.0°F-6.7°C 59% 2.0 mph NE3.2 kmh NE 2.0 mph3.2 kmh 29.43 in996.6 mb 0.00 in0.0 mm 0.00 in0.0 mm 0.00 in0.0 mm
06:29 PM 24.9°F-3.9°C 20.2°F-6.6°C 60% 4.0 mph E6.4 kmh E 4.0 mph6.4 kmh 29.44 in997.0 mb 0.00 in0.0 mm 0.00 in0.0 mm 0.00 in0.0 mm
06:32 PM 24.8°F-4.0°C 20.2°F-6.6°C 60% 1.6 mph ESE2.6 kmh ESE 1.6 mph2.6 kmh 29.44 in997.0 mb 0.00 in0.0 mm 0.00 in0.0 mm 0.00 in0.0 mm
06:35 PM 24.6°F-4.1°C 20.1°F-6.6°C 59% Calm Calm -- 29.44 in997.0 mb 0.00 in0.0 mm 0.00 in0.0 mm 0.00 in0.0 mm
06:38 PM 24.6°F-4.1°C 20.3°F-6.5°C 60% Calm Calm -- 29.44 in997.0 mb 0.00 in0.0 mm 0.00 in0.0 mm 0.00 in0.0 mm
06:41 PM 24.6°F-4.1°C 20.1°F-6.6°C 59% Calm Calm -- 29.44 in997.0 mb 0.00 in0.0 mm 0.00 in0.0 mm 0.00 in0.0 mm
06:44 PM 24.6°F-4.1°C 19.8°F-6.8°C 60% Calm Calm -- 29.44 in997.0 mb 0.00 in0.0 mm 0.00 in0.0 mm 0.00 in0.0 mm
06:47 PM 24.4°F-4.2°C 20.0°F-6.7°C 60% 3.5 mph E5.6 kmh E 3.6 mph5.8 kmh 29.45 in997.3 mb 0.00 in0.0 mm 0.00 in0.0 mm 0.00 in0.0 mm
06:50 PM 24.1°F-4.4°C 20.1°F-6.6°C 60% Calm Calm -- 29.44 in997.0 mb 0.00 in0.0 mm 0.00 in0.0 mm 0.00 in0.0 mm
06:53 PM 24.1°F-4.4°C 20.0°F-6.7°C 60% Calm Calm -- 29.44 in997.0 mb 0.00 in0.0 mm 0.00 in0.0 mm 0.00 in0.0 mm
06:56 PM 24.0°F-4.4°C 20.0°F-6.7°C 61% 6.9 mph SE11.1 kmh SE 6.9 mph11.1 kmh 29.44 in997.0 mb 0.00 in0.0 mm 0.00 in0.0 mm 0.00 in0.0 mm
06:59 PM 24.1°F-4.4°C 21.3°F-5.9°C 61% Calm Calm -- 29.44 in997.0 mb 0.00 in0.0 mm 0.00 in0.0 mm 0.00 in0.0 mm
07:02 PM 23.9°F-4.5°C 21.3°F-5.9°C 61% Calm Calm -- 29.44 in997.0 mb 0.00 in0.0 mm 0.00 in0.0 mm 0.00 in0.0 mm
07:05 PM 24.1°F-4.4°C 21.3°F-5.9°C 61% 3.6 mph ESE5.8 kmh ESE 3.7 mph6.0 kmh 29.45 in997.3 mb 0.00 in0.0 mm 0.00 in0.0 mm 0.00 in0.0 mm
07:08 PM 23.9°F-4.5°C 21.1°F-6.1°C 61% Calm Calm -- 29.45 in997.3 mb 0.00 in0.0 mm 0.00 in0.0 mm 0.00 in0.0 mm
07:11 PM 24.0°F-4.4°C 21.3°F-5.9°C 62% Calm Calm -- 29.45 in997.3 mb 0.00 in0.0 mm 0.00 in0.0 mm 0.00 in0.0 mm
07:14 PM 24.1°F-4.4°C 21.1°F-6.1°C 62% Calm Calm -- 29.45 in997.3 mb 0.00 in0.0 mm 0.00 in0.0 mm 0.00 in0.0 mm
07:17 PM 24.1°F-4.4°C 21.2°F-6.0°C 62% Calm Calm -- 29.45 in997.3 mb 0.00 in0.0 mm 0.00 in0.0 mm 0.00 in0.0 mm
07:20 PM 24.1°F-4.4°C 20.5°F-6.4°C 62% Calm Calm -- 29.45 in997.3 mb 0.00 in0.0 mm 0.00 in0.0 mm 0.00 in0.0 mm
07:23 PM 24.2°F-4.3°C 21.4°F-5.9°C 62% 3.2 mph SSE5.1 kmh SSE 3.2 mph5.1 kmh 29.45 in997.3 mb 0.00 in0.0 mm 0.00 in0.0 mm 0.00 in0.0 mm
07:26 PM 24.0°F-4.4°C 21.2°F-6.0°C 62% Calm Calm -- 29.45 in997.3 mb 0.00 in0.0 mm 0.00 in0.0 mm 0.00 in0.0 mm
07:29 PM 24.0°F-4.4°C 21.2°F-6.0°C 62% Calm Calm -- 29.45 in997.3 mb 0.00 in0.0 mm 0.00 in0.0 mm 0.00 in0.0 mm
07:32 PM 24.0°F-4.4°C 21.6°F-5.8°C 62% Calm Calm -- 29.45 in997.3 mb 0.00 in0.0 mm 0.00 in0.0 mm 0.00 in0.0 mm
07:35 PM 24.0°F-4.4°C 21.2°F-6.0°C 62% Calm Calm -- 29.45 in997.3 mb 0.00 in0.0 mm 0.00 in0.0 mm 0.00 in0.0 mm
07:38 PM 24.0°F-4.4°C 21.4°F-5.9°C 62% Calm Calm -- 29.45 in997.3 mb 0.00 in0.0 mm 0.00 in0.0 mm 0.00 in0.0 mm
07:41 PM 24.0°F-4.4°C 21.5°F-5.8°C 63% 1.6 mph SSE2.6 kmh SSE 1.6 mph2.6 kmh 29.45 in997.3 mb 0.00 in0.0 mm 0.00 in0.0 mm 0.00 in0.0 mm
07:44 PM 24.0°F-4.4°C 21.6°F-5.8°C 63% Calm Calm -- 29.45 in997.3 mb 0.00 in0.0 mm 0.00 in0.0 mm 0.00 in0.0 mm
07:47 PM 24.0°F-4.4°C 21.5°F-5.8°C 63% Calm Calm -- 29.45 in997.3 mb 0.00 in0.0 mm 0.00 in0.0 mm 0.00 in0.0 mm
07:50 PM 24.0°F-4.4°C 21.2°F-6.0°C 63% 3.2 mph S5.1 kmh S 3.2 mph5.1 kmh 29.46 in997.6 mb 0.00 in0.0 mm 0.00 in0.0 mm 0.00 in0.0 mm
07:53 PM 24.0°F-4.4°C 20.8°F-6.2°C 63% 2.4 mph SSE3.9 kmh SSE 2.4 mph3.9 kmh 29.46 in997.6 mb 0.00 in0.0 mm 0.00 in0.0 mm 0.00 in0.0 mm
07:56 PM 24.0°F-4.4°C 21.1°F-6.1°C 64% Calm Calm -- 29.46 in997.6 mb 0.00 in0.0 mm 0.00 in0.0 mm 0.00 in0.0 mm
07:59 PM 24.0°F-4.4°C 21.2°F-6.0°C 64% 4.8 mph SE7.7 kmh SE 4.8 mph7.7 kmh 29.46 in997.6 mb 0.00 in0.0 mm 0.00 in0.0 mm 0.00 in0.0 mm
08:02 PM 24.0°F-4.4°C 21.1°F-6.1°C 64% 5.6 mph NNW9.0 kmh NNW 5.6 mph9.0 kmh 29.47 in998.0 mb 0.00 in0.0 mm 0.00 in0.0 mm 0.00 in0.0 mm
08:05 PM 24.0°F-4.4°C 20.6°F-6.3°C 65% 6.3 mph SE10.1 kmh SE 6.3 mph10.1 kmh 29.46 in997.6 mb 0.00 in0.0 mm 0.00 in0.0 mm 0.00 in0.0 mm
08:08 PM 23.9°F-4.5°C 20.5°F-6.4°C 65% 6.7 mph SE10.8 kmh SE 6.7 mph10.8 kmh 29.46 in997.6 mb 0.00 in0.0 mm 0.00 in0.0 mm 0.00 in0.0 mm
08:11 PM 23.9°F-4.5°C 20.6°F-6.3°C 65% 4.7 mph SSE7.6 kmh SSE 4.8 mph7.7 kmh 29.46 in997.6 mb 0.00 in0.0 mm 0.00 in0.0 mm 0.00 in0.0 mm
08:14 PM 23.8°F-4.6°C 20.8°F-6.2°C 65% 6.1 mph SSE9.8 kmh SSE 6.1 mph9.8 kmh 29.46 in997.6 mb 0.00 in0.0 mm 0.00 in0.0 mm 0.00 in0.0 mm
08:17 PM 23.8°F-4.6°C 20.9°F-6.2°C 66% 4.0 mph NNW6.4 kmh NNW 4.1 mph6.6 kmh 29.45 in997.3 mb 0.00 in0.0 mm 0.00 in0.0 mm 0.00 in0.0 mm
08:20 PM 23.7°F-4.6°C 21.2°F-6.0°C 66% 3.5 mph SE5.6 kmh SE 3.6 mph5.8 kmh 29.46 in997.6 mb 0.00 in0.0 mm 0.00 in0.0 mm 0.00 in0.0 mm
08:23 PM 23.7°F-4.6°C 21.3°F-5.9°C 66% 3.6 mph SE5.8 kmh SE 3.7 mph6.0 kmh 29.46 in997.6 mb 0.00 in0.0 mm 0.00 in0.0 mm 0.00 in0.0 mm
08:26 PM 23.8°F-4.6°C 21.1°F-6.1°C 66% 7.3 mph SE11.7 kmh SE 7.3 mph11.7 kmh 29.46 in997.6 mb 0.00 in0.0 mm 0.00 in0.0 mm 0.00 in0.0 mm
08:29 PM 23.7°F-4.6°C 20.8°F-6.2°C 66% 2.8 mph SE4.5 kmh SE 2.8 mph4.5 kmh 29.46 in997.6 mb 0.00 in0.0 mm 0.00 in0.0 mm 0.00 in0.0 mm
08:32 PM 23.7°F-4.6°C 21.2°F-6.0°C 67% 2.4 mph SSE3.9 kmh SSE 2.4 mph3.9 kmh 29.46 in997.6 mb 0.00 in0.0 mm 0.00 in0.0 mm 0.00 in0.0 mm
08:35 PM 23.7°F-4.6°C 20.9°F-6.2°C 66% 1.2 mph SE1.9 kmh SE 1.2 mph1.9 kmh 29.47 in998.0 mb 0.00 in0.0 mm 0.00 in0.0 mm 0.00 in0.0 mm
08:38 PM 23.6°F-4.7°C 20.9°F-6.2°C 66% 5.6 mph ESE9.0 kmh ESE 5.6 mph9.0 kmh 29.47 in998.0 mb 0.00 in0.0 mm 0.00 in0.0 mm 0.00 in0.0 mm
08:41 PM 23.6°F-4.7°C 21.0°F-6.1°C 67% 4.0 mph SE6.4 kmh SE 4.0 mph6.4 kmh 29.47 in998.0 mb 0.00 in0.0 mm 0.00 in0.0 mm 0.00 in0.0 mm
08:44 PM 23.6°F-4.7°C 21.2°F-6.0°C 67% 2.0 mph SE3.2 kmh SE 2.0 mph3.2 kmh 29.47 in998.0 mb 0.00 in0.0 mm 0.00 in0.0 mm 0.00 in0.0 mm
08:47 PM 23.6°F-4.7°C 20.8°F-6.2°C 66% 6.0 mph SE9.7 kmh SE 6.0 mph9.7 kmh 29.47 in998.0 mb 0.00 in0.0 mm 0.00 in0.0 mm 0.00 in0.0 mm
08:50 PM 23.5°F-4.7°C 20.8°F-6.2°C 67% 6.3 mph SE10.1 kmh SE 6.3 mph10.1 kmh 29.47 in998.0 mb 0.00 in0.0 mm 0.00 in0.0 mm 0.00 in0.0 mm
08:53 PM 23.5°F-4.7°C 20.7°F-6.3°C 66% 0.8 mph NNW1.3 kmh NNW 0.8 mph1.3 kmh 29.47 in998.0 mb 0.00 in0.0 mm 0.00 in0.0 mm 0.00 in0.0 mm
08:56 PM 23.5°F-4.7°C 21.0°F-6.1°C 67% 2.8 mph SE4.5 kmh SE 2.9 mph4.7 kmh 29.47 in998.0 mb 0.00 in0.0 mm 0.00 in0.0 mm 0.00 in0.0 mm
08:59 PM 23.5°F-4.7°C 21.0°F-6.1°C 67% 2.8 mph SE4.5 kmh SE 2.8 mph4.5 kmh 29.47 in998.0 mb 0.00 in0.0 mm 0.00 in0.0 mm 0.00 in0.0 mm
09:02 PM 23.6°F-4.7°C 21.2°F-6.0°C 67% 3.2 mph SSE5.1 kmh SSE 3.3 mph5.3 kmh 29.47 in998.0 mb 0.00 in0.0 mm 0.00 in0.0 mm 0.00 in0.0 mm
09:05 PM 23.6°F-4.7°C 21.2°F-6.0°C 67% Calm Calm -- 29.47 in998.0 mb 0.00 in0.0 mm 0.00 in0.0 mm 0.00 in0.0 mm
09:08 PM 23.5°F-4.7°C 21.2°F-6.0°C 66% Calm Calm -- 29.47 in998.0 mb 0.00 in0.0 mm 0.00 in0.0 mm 0.00 in0.0 mm
09:11 PM 23.6°F-4.7°C 21.4°F-5.9°C 66% Calm Calm -- 29.47 in998.0 mb 0.00 in0.0 mm 0.00 in0.0 mm 0.00 in0.0 mm
09:14 PM 23.5°F-4.7°C 21.4°F-5.9°C 66% Calm Calm -- 29.47 in998.0 mb 0.00 in0.0 mm 0.00 in0.0 mm 0.00 in0.0 mm
09:17 PM 23.5°F-4.7°C 21.4°F-5.9°C 67% 1.2 mph E1.9 kmh E 1.2 mph1.9 kmh 29.47 in998.0 mb 0.00 in0.0 mm 0.00 in0.0 mm 0.00 in0.0 mm
09:20 PM 23.3°F-4.8°C 21.2°F-6.0°C 67% 1.2 mph SE1.9 kmh SE 1.2 mph1.9 kmh 29.47 in998.0 mb 0.00 in0.0 mm 0.00 in0.0 mm 0.00 in0.0 mm
09:23 PM 23.3°F-4.8°C 21.1°F-6.1°C 67% 4.0 mph ESE6.4 kmh ESE 4.1 mph6.6 kmh 29.47 in998.0 mb 0.00 in0.0 mm 0.00 in0.0 mm 0.00 in0.0 mm
09:26 PM 23.5°F-4.7°C 20.8°F-6.2°C 67% 5.2 mph SSE8.4 kmh SSE 5.3 mph8.5 kmh 29.47 in998.0 mb 0.00 in0.0 mm 0.00 in0.0 mm 0.00 in0.0 mm
09:29 PM 23.3°F-4.8°C 20.3°F-6.5°C 67% 2.0 mph SSE3.2 kmh SSE 2.0 mph3.2 kmh 29.47 in998.0 mb 0.00 in0.0 mm 0.00 in0.0 mm 0.00 in0.0 mm
09:32 PM 23.3°F-4.8°C 20.9°F-6.2°C 68% 5.2 mph SE8.4 kmh SE 5.2 mph8.4 kmh 29.47 in998.0 mb 0.00 in0.0 mm 0.00 in0.0 mm 0.00 in0.0 mm
09:35 PM 23.3°F-4.8°C 21.1°F-6.1°C 68% Calm Calm -- 29.47 in998.0 mb 0.00 in0.0 mm 0.00 in0.0 mm 0.00 in0.0 mm
09:38 PM 23.3°F-4.8°C 20.8°F-6.2°C 67% 6.4 mph SE10.3 kmh SE 6.4 mph10.3 kmh 29.47 in998.0 mb 0.00 in0.0 mm 0.00 in0.0 mm 0.00 in0.0 mm
09:41 PM 23.3°F-4.8°C 20.7°F-6.3°C 68% 4.8 mph SE7.7 kmh SE 4.9 mph7.9 kmh 29.47 in998.0 mb 0.00 in0.0 mm 0.00 in0.0 mm 0.00 in0.0 mm
09:44 PM 23.3°F-4.8°C 20.6°F-6.3°C 67% 5.3 mph SE8.5 kmh SE 5.3 mph8.5 kmh 29.47 in998.0 mb 0.00 in0.0 mm 0.00 in0.0 mm 0.00 in0.0 mm
09:47 PM 23.3°F-4.8°C 20.9°F-6.2°C 68% 4.0 mph NNW6.4 kmh NNW 4.1 mph6.6 kmh 29.47 in998.0 mb 0.00 in0.0 mm 0.00 in0.0 mm 0.00 in0.0 mm
09:50 PM 23.2°F-4.9°C 21.0°F-6.1°C 67% Calm Calm -- 29.47 in998.0 mb 0.00 in0.0 mm 0.00 in0.0 mm 0.00 in0.0 mm
09:53 PM 23.3°F-4.8°C 21.4°F-5.9°C 68% Calm Calm -- 29.47 in998.0 mb 0.00 in0.0 mm 0.00 in0.0 mm 0.00 in0.0 mm
09:56 PM 23.3°F-4.8°C 20.9°F-6.2°C 68% 4.0 mph SE6.4 kmh SE 4.0 mph6.4 kmh 29.47 in998.0 mb 0.00 in0.0 mm 0.00 in0.0 mm 0.00 in0.0 mm
09:59 PM 23.2°F-4.9°C 21.1°F-6.1°C 67% Calm Calm -- 29.47 in998.0 mb 0.00 in0.0 mm 0.00 in0.0 mm 0.00 in0.0 mm
10:02 PM 23.2°F-4.9°C 21.2°F-6.0°C 68% Calm Calm -- 29.47 in998.0 mb 0.00 in0.0 mm 0.00 in0.0 mm 0.00 in0.0 mm
10:05 PM 23.2°F-4.9°C 21.2°F-6.0°C 67% Calm Calm -- 29.47 in998.0 mb 0.00 in0.0 mm 0.00 in0.0 mm 0.00 in0.0 mm
10:08 PM 23.1°F-4.9°C 21.3°F-5.9°C 67% Calm Calm -- 29.47 in998.0 mb 0.00 in0.0 mm 0.00 in0.0 mm 0.00 in0.0 mm
10:11 PM 23.1°F-4.9°C 21.3°F-5.9°C 67% Calm Calm -- 29.47 in998.0 mb 0.00 in0.0 mm 0.00 in0.0 mm 0.00 in0.0 mm
10:14 PM 23.1°F-4.9°C 21.6°F-5.8°C 68% Calm Calm -- 29.47 in998.0 mb 0.00 in0.0 mm 0.00 in0.0 mm 0.00 in0.0 mm
10:17 PM 23.1°F-4.9°C 21.6°F-5.8°C 68% Calm Calm -- 29.47 in998.0 mb 0.00 in0.0 mm 0.00 in0.0 mm 0.00 in0.0 mm
10:20 PM 23.1°F-4.9°C 21.4°F-5.9°C 67% 2.8 mph SE4.5 kmh SE 2.8 mph4.5 kmh 29.47 in998.0 mb 0.00 in0.0 mm 0.00 in0.0 mm 0.00 in0.0 mm
10:23 PM 23.1°F-4.9°C 21.1°F-6.1°C 67% Calm Calm -- 29.47 in998.0 mb 0.00 in0.0 mm 0.00 in0.0 mm 0.00 in0.0 mm
10:26 PM 23.0°F-5.0°C 21.1°F-6.1°C 68% 2.0 mph SE3.2 kmh SE 2.0 mph3.2 kmh 29.46 in997.6 mb 0.00 in0.0 mm 0.00 in0.0 mm 0.00 in0.0 mm
10:29 PM 23.0°F-5.0°C 21.2°F-6.0°C 68% Calm Calm -- 29.46 in997.6 mb 0.00 in0.0 mm 0.00 in0.0 mm 0.00 in0.0 mm
10:32 PM 23.0°F-5.0°C 21.1°F-6.1°C 68% Calm Calm -- 29.47 in998.0 mb 0.00 in0.0 mm 0.00 in0.0 mm 0.00 in0.0 mm
10:35 PM 23.0°F-5.0°C 21.1°F-6.1°C 68% 2.0 mph ESE3.2 kmh ESE 2.0 mph3.2 kmh 29.47 in998.0 mb 0.00 in0.0 mm 0.00 in0.0 mm 0.00 in0.0 mm
10:38 PM 23.0°F-5.0°C 21.2°F-6.0°C 68% 4.8 mph ESE7.7 kmh ESE 4.9 mph7.9 kmh 29.47 in998.0 mb 0.00 in0.0 mm 0.00 in0.0 mm 0.00 in0.0 mm
10:41 PM 23.0°F-5.0°C 21.0°F-6.1°C 68% Calm Calm -- 29.47 in998.0 mb 0.00 in0.0 mm 0.00 in0.0 mm 0.00 in0.0 mm
10:44 PM 23.0°F-5.0°C 20.7°F-6.3°C 68% 6.3 mph SE10.1 kmh SE 6.3 mph10.1 kmh 29.47 in998.0 mb 0.00 in0.0 mm 0.00 in0.0 mm 0.00 in0.0 mm
10:47 PM 22.9°F-5.1°C 20.9°F-6.2°C 68% 1.6 mph NNW2.6 kmh NNW 1.6 mph2.6 kmh 29.47 in998.0 mb 0.00 in0.0 mm 0.00 in0.0 mm 0.00 in0.0 mm
10:50 PM 23.0°F-5.0°C 21.1°F-6.1°C 68% 1.2 mph ESE1.9 kmh ESE 1.2 mph1.9 kmh 29.47 in998.0 mb 0.00 in0.0 mm 0.00 in0.0 mm 0.00 in0.0 mm
10:53 PM 22.9°F-5.1°C 20.9°F-6.2°C 68% Calm Calm -- 29.47 in998.0 mb 0.00 in0.0 mm 0.00 in0.0 mm 0.00 in0.0 mm
10:56 PM 22.9°F-5.1°C 20.7°F-6.3°C 68% 2.4 mph SE3.9 kmh SE 2.4 mph3.9 kmh 29.47 in998.0 mb 0.00 in0.0 mm 0.00 in0.0 mm 0.00 in0.0 mm
10:59 PM 22.9°F-5.1°C 21.2°F-6.0°C 68% 3.9 mph ESE6.3 kmh ESE 3.9 mph6.3 kmh 29.47 in998.0 mb 0.00 in0.0 mm 0.00 in0.0 mm 0.00 in0.0 mm
11:02 PM 22.9°F-5.1°C 21.4°F-5.9°C 69% Calm Calm -- 29.47 in998.0 mb 0.00 in0.0 mm 0.00 in0.0 mm 0.00 in0.0 mm
11:05 PM 22.9°F-5.1°C 20.9°F-6.2°C 68% 1.6 mph SE2.6 kmh SE 1.6 mph2.6 kmh 29.47 in998.0 mb 0.00 in0.0 mm 0.00 in0.0 mm 0.00 in0.0 mm
11:08 PM 22.9°F-5.1°C 20.9°F-6.2°C 68% Calm Calm -- 29.47 in998.0 mb 0.00 in0.0 mm 0.00 in0.0 mm 0.00 in0.0 mm
11:11 PM 22.9°F-5.1°C 21.1°F-6.1°C 68% Calm Calm -- 29.47 in998.0 mb 0.00 in0.0 mm 0.00 in0.0 mm 0.00 in0.0 mm
11:14 PM 22.9°F-5.1°C 21.1°F-6.1°C 68% 0.4 mph E0.6 kmh E 0.4 mph0.6 kmh 29.47 in998.0 mb 0.00 in0.0 mm 0.00 in0.0 mm 0.00 in0.0 mm
11:17 PM 22.8°F-5.1°C 21.2°F-6.0°C 68% Calm Calm -- 29.47 in998.0 mb 0.00 in0.0 mm 0.00 in0.0 mm 0.00 in0.0 mm
11:20 PM 22.9°F-5.1°C 21.2°F-6.0°C 69% Calm Calm -- 29.47 in998.0 mb 0.00 in0.0 mm 0.00 in0.0 mm 0.00 in0.0 mm
11:23 PM 22.9°F-5.1°C 21.1°F-6.1°C 69% 2.0 mph E3.2 kmh E 2.0 mph3.2 kmh 29.47 in998.0 mb 0.00 in0.0 mm 0.00 in0.0 mm 0.00 in0.0 mm
11:26 PM 22.9°F-5.1°C 21.4°F-5.9°C 69% Calm Calm -- 29.48 in998.3 mb 0.00 in0.0 mm 0.00 in0.0 mm 0.00 in0.0 mm
11:29 PM 22.9°F-5.1°C 21.3°F-5.9°C 69% Calm Calm -- 29.47 in998.0 mb 0.00 in0.0 mm 0.00 in0.0 mm 0.00 in0.0 mm
11:32 PM 22.9°F-5.1°C 21.1°F-6.1°C 69% 2.4 mph NNW3.9 kmh NNW 2.4 mph3.9 kmh 29.47 in998.0 mb 0.00 in0.0 mm 0.00 in0.0 mm 0.00 in0.0 mm
11:35 PM 22.9°F-5.1°C 21.4°F-5.9°C 69% Calm Calm -- 29.47 in998.0 mb 0.00 in0.0 mm 0.00 in0.0 mm 0.00 in0.0 mm
11:38 PM 22.9°F-5.1°C 21.4°F-5.9°C 69% Calm Calm -- 29.47 in998.0 mb 0.00 in0.0 mm 0.00 in0.0 mm 0.00 in0.0 mm
11:41 PM 22.9°F-5.1°C 21.1°F-6.1°C 69% Calm Calm -- 29.47 in998.0 mb 0.00 in0.0 mm 0.00 in0.0 mm 0.00 in0.0 mm
11:44 PM 22.9°F-5.1°C 21.4°F-5.9°C 69% 0.4 mph SE0.6 kmh SE 0.4 mph0.6 kmh 29.47 in998.0 mb 0.00 in0.0 mm 0.00 in0.0 mm 0.00 in0.0 mm
11:47 PM 22.9°F-5.1°C 21.2°F-6.0°C 69% 2.0 mph ESE3.2 kmh ESE 2.0 mph3.2 kmh 29.47 in998.0 mb 0.00 in0.0 mm 0.00 in0.0 mm 0.00 in0.0 mm
11:50 PM 22.9°F-5.1°C 20.9°F-6.2°C 69% 2.4 mph SE3.9 kmh SE 2.4 mph3.9 kmh 29.47 in998.0 mb 0.00 in0.0 mm 0.00 in0.0 mm 0.00 in0.0 mm
11:53 PM 22.8°F-5.1°C 21.0°F-6.1°C 69% 2.4 mph ESE3.9 kmh ESE 2.5 mph4.0 kmh 29.48 in998.3 mb 0.00 in0.0 mm 0.00 in0.0 mm 0.00 in0.0 mm
11:56 PM 22.8°F-5.1°C 21.3°F-5.9°C 69% 0.4 mph ESE0.6 kmh ESE 0.4 mph0.6 kmh 29.47 in998.0 mb 0.00 in0.0 mm 0.00 in0.0 mm 0.00 in0.0 mm
11:59 PM 22.8°F-5.1°C 21.2°F-6.0°C 69% 0.4 mph SE0.6 kmh SE 0.4 mph0.6 kmh 29.47 in998.0 mb 0.00 in0.0 mm 0.00 in0.0 mm 0.00 in0.0 mm